U2889 / G-EZFY 7700 Squawk Report (20th of January, 2019)

Aircraft A319 Reg No. G-EZFY Age 8 years old
Model A319 Jet engines 2 First flight 10-08-10
Registered 18-08-10 Rollout 08-10 Delivered 18-08-10
Construction No. 4418 Line No. N/A Series 111
ADSHEX 40631D Airline name easyJet Owner N/A
Airfield based Luton~Beds~G First tracked 2017-07-13 06:06:00

Flight history for G-EZFY

Route Flight No Date Playback
Malpensa (MXP) - Gatwick (LGW) U28200 2019-02-18 20:40:00
Gatwick (LGW) - Malpensa (MXP) U28197 2019-02-18 20:21:00
Linate (LIN) - Gatwick (LGW) U28186 2019-02-18 16:47:00
Gatwick (LGW) - Linate (LIN) U28185 2019-02-18 15:15:00
Kastrup (CPH) - Gatwick (LGW) U28262 2019-02-18 11:18:00
Gatwick (LGW) - Kastrup (CPH) U28261 2019-02-18 09:20:00
Zurich (ZRH) - Gatwick (LGW) U28118 2019-02-17 22:11:00
Gatwick (LGW) - Zurich (ZRH) U28117 2019-02-17 19:49:00
Belfast Intl (BFS) - Gatwick (LGW) U2834 2019-02-17 18:17:00
Gatwick (LGW) - Belfast Intl (BFS) U2833 2019-02-17 16:02:00
Alicante (ALC) - Gatwick (LGW) U28662 2019-02-17 12:58:00
Gatwick (LGW) - Alicante (ALC) U28661 2019-02-17 10:01:00
Makedonia (SKG) - Gatwick (LGW) U28092 2019-02-17 07:35:00
Gatwick (LGW) - Makedonia (SKG) U28091 2019-02-16 16:02:00
Nantes Atlantique (NTE) - Gatwick (LGW) U28962 2019-02-16 12:42:00
Gatwick (LGW) - Nantes Atlantique (NTE) U28961 2019-02-16 09:55:00
Rovaniemi (RVN) - Gatwick (LGW) U28492 2019-02-13 20:08:00
Gatwick (LGW) - Rovaniemi (RVN) U28491 2019-02-13 16:58:00
Luqa (MLA) - Gatwick (LGW) U28826 2019-02-12 22:11:00
Gatwick (LGW) - Luqa (MLA) U28825 2019-02-12 17:48:00
Time Lat Lon Altitude Heading Speed Vertical Rate
2019-01-20 19:28:00 GMT 55.864548 -4.442747 0 45 14 0
2019-01-20 19:26:25 GMT 55.869976 -4.436937 0 227 76 0
2019-01-20 19:26:17 GMT 55.872734 -4.431839 0 227 115 0
2019-01-20 19:26:08 GMT 55.875954 -4.425859 -300 227 125 -320
2019-01-20 19:25:55 GMT 55.881260 -4.415903 -175 227 125 -576
2019-01-20 19:25:47 GMT 55.884201 -4.410345 -50 227 124 -704
2019-01-20 19:25:37 GMT 55.888149 -4.402943 50 227 124 -576
2019-01-20 19:25:30 GMT 55.891113 -4.397444 150 226 123 -704
2019-01-20 19:25:18 GMT 55.896378 -4.387540 275 227 123 -640
2019-01-20 19:25:09 GMT 55.899261 -4.382130 375 227 124 -640
2019-01-20 19:24:59 GMT 55.903278 -4.374447 500 227 125 -704
2019-01-20 19:24:49 GMT 55.907410 -4.366816 625 226 126 -512
2019-01-20 19:24:46 GMT 55.908508 -4.364735 650 226 126 -576
2019-01-20 19:24:38 GMT 55.911518 -4.359083 725 227 126 -704
2019-01-20 19:24:34 GMT 55.915649 -4.351335 1,125 227 126 -704
2019-01-20 19:24:28 GMT 55.915649 -4.351335 850 227 126 -704
2019-01-20 19:24:17 GMT 55.920364 -4.342518 1,000 227 127 -704
2019-01-20 19:24:11 GMT 55.923065 -4.337519 1,075 227 127 -768
2019-01-20 19:24:06 GMT 55.924850 -4.334106 1,125 226 128 -704
2019-01-20 19:23:58 GMT 55.928417 -4.327497 1,225 226 128 -640
2019-01-20 19:23:55 GMT 55.929245 -4.326033 1,250 227 127 -640
2019-01-20 19:23:51 GMT 55.930893 -4.322954 1,300 227 128 -704
2019-01-20 19:23:46 GMT 55.933258 -4.318485 1,375 227 129 -640
2019-01-20 19:23:38 GMT 55.936237 -4.312906 1,450 227 128 -640
2019-01-20 19:23:33 GMT 55.938812 -4.307972 1,525 227 130 -704
2019-01-20 19:23:28 GMT 55.940231 -4.305226 1,575 227 130 -768
2019-01-20 19:23:24 GMT 55.942291 -4.301405 1,625 227 130 -704
2019-01-20 19:23:19 GMT 55.944214 -4.297735 1,675 227 130 -768
2019-01-20 19:23:13 GMT 55.946320 -4.293740 1,750 227 130 -704
2019-01-20 19:23:06 GMT 55.949272 -4.288273 1,850 227 130 -640
2019-01-20 19:23:03 GMT 55.950714 -4.285583 1,875 226 129 -640
2019-01-20 19:22:56 GMT 55.953552 -4.280340 1,950 227 130 -640
2019-01-20 19:22:52 GMT 55.955139 -4.277372 2,050 227 130 -704
2019-01-20 19:22:48 GMT 55.956860 -4.274025 2,075 227 129 -640
2019-01-20 19:22:45 GMT 55.958496 -4.270935 2,075 227 130 -704
2019-01-20 19:22:42 GMT 55.959412 -4.269270 2,125 227 130 -768
2019-01-20 19:22:36 GMT 55.963192 -4.262180 2,225 227 128 -768
2019-01-20 19:22:33 GMT 55.963192 -4.262180 2,250 227 128 -768
2019-01-20 19:22:25 GMT 55.966591 -4.255829 2,375 227 128 -768
2019-01-20 19:22:22 GMT 55.967381 -4.254370 2,375 227 129 -768
2019-01-20 19:22:16 GMT 55.970036 -4.249392 2,450 228 132 -768
2019-01-20 19:22:13 GMT 55.971817 -4.245966 2,525 228 133 -704
2019-01-20 19:22:07 GMT 55.973804 -4.242182 2,575 228 136 -512
2019-01-20 19:22:03 GMT 55.975155 -4.239521 2,600 228 141 -512
2019-01-20 19:22:00 GMT 55.977669 -4.234800 2,650 227 145 -512
2019-01-20 19:21:57 GMT 55.978134 -4.233898 2,675 227 145 -576
2019-01-20 19:21:54 GMT 55.979626 -4.231024 2,700 227 145 -256
2019-01-20 19:21:48 GMT 55.983723 -4.223213 2,750 227 147 -64
2019-01-20 19:21:45 GMT 55.983723 -4.223213 2,750 227 147 -64
2019-01-20 19:21:42 GMT 55.985138 -4.220581 2,750 227 148 -64
2019-01-20 19:21:34 GMT 55.990425 -4.210768 2,750 227 155 -320
2019-01-20 19:21:24 GMT 55.995529 -4.201272 2,825 227 166 -576
2019-01-20 19:21:18 GMT 55.997871 -4.196777 2,875 227 169 -448
2019-01-20 19:21:14 GMT 55.999039 -4.194546 2,900 227 168 -448
2019-01-20 19:21:11 GMT 56.001179 -4.190426 2,925 227 168 -448
2019-01-20 19:21:08 GMT 56.002899 -4.187164 3,000 227 169 -448
2019-01-20 19:21:05 GMT 56.004730 -4.183710 3,000 227 170 -512
2019-01-20 19:21:01 GMT 56.006348 -4.180641 3,000 227 170 -512
2019-01-20 19:20:57 GMT 56.008533 -4.176521 3,075 228 171 -576
2019-01-20 19:20:54 GMT 56.010021 -4.173603 3,100 228 171 -576
2019-01-20 19:20:50 GMT 56.012283 -4.169145 3,100 228 171 -576
2019-01-20 19:20:46 GMT 56.015717 -4.162487 3,200 228 171 -512
2019-01-20 19:20:40 GMT 56.017960 -4.157992 3,200 228 171 -512
2019-01-20 19:20:37 GMT 56.019745 -4.154497 3,225 229 170 0
2019-01-20 19:20:33 GMT 56.021660 -4.150600 3,225 229 170 0
2019-01-20 19:20:29 GMT 56.023224 -4.147422 3,225 230 170 0
2019-01-20 19:20:25 GMT 56.025513 -4.142678 3,225 231 170 0
2019-01-20 19:20:22 GMT 56.026703 -4.140181 3,225 231 169 0
2019-01-20 19:20:16 GMT 56.029716 -4.133348 3,225 234 168 64
2019-01-20 19:20:12 GMT 56.031647 -4.128529 3,225 236 166 64
2019-01-20 19:20:07 GMT 56.034042 -4.122019 3,225 238 163 64
2019-01-20 19:20:02 GMT 56.035767 -4.117041 3,225 241 163 0
2019-01-20 19:19:59 GMT 56.036697 -4.114122 3,225 244 162 -64
2019-01-20 19:19:54 GMT 56.038280 -4.108458 3,225 247 162 0
2019-01-20 19:19:50 GMT 56.040096 -4.100304 3,225 256 158 0
2019-01-20 19:19:44 GMT 56.040802 -4.095653 3,225 261 156 0
2019-01-20 19:19:41 GMT 56.041168 -4.090826 3,225 266 154 -64
2019-01-20 19:19:38 GMT 56.041306 -4.086997 3,225 267 152 0
2019-01-20 19:19:34 GMT 56.041443 -4.082420 3,225 267 152 -64
2019-01-20 19:19:31 GMT 56.041534 -4.079007 3,250 267 152 -128
2019-01-20 19:19:28 GMT 56.041718 -4.073847 3,250 267 151 -64
2019-01-20 19:19:24 GMT 56.041866 -4.069662 3,250 267 151 0
2019-01-20 19:19:21 GMT 56.041992 -4.065940 3,250 267 153 0
2019-01-20 19:19:18 GMT 56.042099 -4.062195 3,225 267 154 -64
2019-01-20 19:19:14 GMT 56.042282 -4.057217 3,250 267 156 -64
2019-01-20 19:19:11 GMT 56.042404 -4.053705 3,250 267 156 -64
2019-01-20 19:19:08 GMT 56.042542 -4.049544 3,250 267 156 -64
2019-01-20 19:19:05 GMT 56.042656 -4.045200 3,250 267 157 -128
2019-01-20 19:19:01 GMT 56.042934 -4.036016 3,275 268 159 -256
2019-01-20 19:18:57 GMT 56.042934 -4.036016 3,275 268 159 -256
2019-01-20 19:18:54 GMT 56.043030 -4.031811 3,275 269 160 -256
2019-01-20 19:18:51 GMT 56.043076 -4.027605 3,300 271 160 -256
2019-01-20 19:18:48 GMT 56.043045 -4.023077 3,300 276 158 -192
2019-01-20 19:18:44 GMT 56.042633 -4.017667 3,325 287 156 -256
2019-01-20 19:18:41 GMT 56.042049 -4.014130 3,350 294 155 -256
2019-01-20 19:18:38 GMT 56.040794 -4.009838 3,350 310 151 -256
2019-01-20 19:18:35 GMT 56.039795 -4.007430 3,375 317 152 -256
2019-01-20 19:18:32 GMT 56.038048 -4.004517 3,375 330 152 -320
2019-01-20 19:18:28 GMT 56.035858 -4.002113 3,400 339 153 -320
2019-01-20 19:18:24 GMT 56.032833 -4.000311 3,425 347 155 -320
2019-01-20 19:18:21 GMT 56.030926 -3.999538 3,450 349 156 -256
2019-01-20 19:18:16 GMT 56.028179 -3.998508 3,450 349 156 -256
2019-01-20 19:18:13 GMT 56.024921 -3.997393 3,475 349 160 -320
2019-01-20 19:18:10 GMT 56.023617 -3.996878 3,500 349 161 -320
2019-01-20 19:18:07 GMT 56.019611 -3.995419 3,500 349 165 -384
2019-01-20 19:18:02 GMT 56.018097 -3.994862 3,525 349 169 -576
2019-01-20 19:17:58 GMT 56.012909 -3.993015 3,600 349 171 -512
2019-01-20 19:17:53 GMT 56.010536 -3.992157 3,725 349 171 -448
2019-01-20 19:17:50 GMT 56.008530 -3.991366 3,650 349 172 -512
2019-01-20 19:17:46 GMT 56.005878 -3.990440 3,675 349 172 -512
2019-01-20 19:17:43 GMT 56.002899 -3.989286 3,725 349 171 -448
2019-01-20 19:17:40 GMT 56.000572 -3.988466 3,775 349 171 -448
2019-01-20 19:17:37 GMT 55.998386 -3.987694 3,775 349 171 -448
2019-01-20 19:17:31 GMT 55.993286 -3.985790 3,800 349 172 -512
2019-01-20 19:17:28 GMT 55.990173 -3.984625 3,875 349 171 -512
2019-01-20 19:17:21 GMT 55.985825 -3.983043 3,875 349 172 -512
2019-01-20 19:17:17 GMT 55.982372 -3.981771 3,925 349 173 -512
2019-01-20 19:17:12 GMT 55.979115 -3.980484 3,975 349 174 -576
2019-01-20 19:17:09 GMT 55.976578 -3.979548 4,000 349 174 -512
2019-01-20 19:17:04 GMT 55.972549 -3.978050 4,050 349 175 -448
2019-01-20 19:17:00 GMT 55.969299 -3.976801 4,075 348 175 -448
2019-01-20 19:16:57 GMT 55.966461 -3.975719 4,075 348 175 -448
2019-01-20 19:16:51 GMT 55.962387 -3.974221 4,150 349 173 -384
2019-01-20 19:16:48 GMT 55.960072 -3.973360 4,150 349 173 -384
2019-01-20 19:16:42 GMT 55.954147 -3.971058 4,200 348 175 -512
2019-01-20 19:16:38 GMT 55.952316 -3.970309 4,225 348 175 -512
2019-01-20 19:16:31 GMT 55.946182 -3.967979 4,425 348 181 -640
2019-01-20 19:16:28 GMT 55.943619 -3.966980 4,300 348 180 -576
2019-01-20 19:16:22 GMT 55.938892 -3.965120 4,425 349 182 -640
2019-01-20 19:16:18 GMT 55.936066 -3.964067 4,425 348 183 -576
2019-01-20 19:16:11 GMT 55.929886 -3.961737 4,500 349 184 -576
2019-01-20 19:16:08 GMT 55.927719 -3.960915 4,550 348 185 -576
2019-01-20 19:16:01 GMT 55.922039 -3.958769 4,650 349 184 -448
2019-01-20 19:15:58 GMT 55.919174 -3.957658 4,625 349 184 -448
2019-01-20 19:15:50 GMT 55.912590 -3.955164 4,700 349 183 -448
2019-01-20 19:15:47 GMT 55.910309 -3.954306 4,725 349 183 -448
2019-01-20 19:15:41 GMT 55.905003 -3.952417 4,775 349 182 -384
2019-01-20 19:15:38 GMT 55.902348 -3.951387 4,800 349 182 -320
2019-01-20 19:15:31 GMT 55.893967 -3.948469 4,850 349 185 -576
2019-01-20 19:15:28 GMT 55.893967 -3.948469 4,850 349 187 -960
2019-01-20 19:15:22 GMT 55.888195 -3.946323 5,000 348 188 -768
2019-01-20 19:15:18 GMT 55.883728 -3.944607 5,050 347 189 -704
2019-01-20 19:15:10 GMT 55.878983 -3.942427 5,125 343 191 -640
2019-01-20 19:15:07 GMT 55.876419 -3.941002 5,150 341 192 -640
2019-01-20 19:15:04 GMT 55.874092 -3.939457 5,200 334 198 -704
2019-01-20 19:15:01 GMT 55.870739 -3.936796 5,275 334 198 -768
2019-01-20 19:14:58 GMT 55.868134 -3.934565 5,325 334 198 -704
2019-01-20 19:14:55 GMT 55.866028 -3.932689 5,325 334 200 -704
2019-01-20 19:14:50 GMT 55.862125 -3.929243 5,400 334 203 -640
2019-01-20 19:14:47 GMT 55.859619 -3.926946 5,425 334 203 -704
2019-01-20 19:14:44 GMT 55.857330 -3.924866 5,450 334 205 -704
2019-01-20 19:14:40 GMT 55.852249 -3.920288 5,525 334 207 -704
2019-01-20 19:14:37 GMT 55.851326 -3.919458 5,525 334 209 -640
2019-01-20 19:14:34 GMT 55.848724 -3.917125 5,550 333 211 -576
2019-01-20 19:14:29 GMT 55.844513 -3.913297 5,625 334 213 -640
2019-01-20 19:14:26 GMT 55.841877 -3.910961 5,650 334 215 -704
2019-01-20 19:14:23 GMT 55.839615 -3.908886 5,675 334 216 -704
2019-01-20 19:14:20 GMT 55.836151 -3.905811 5,750 333 219 -832
2019-01-20 19:14:17 GMT 55.833309 -3.903151 5,775 333 220 -960
2019-01-20 19:14:14 GMT 55.830231 -3.900396 5,825 334 220 -960
2019-01-20 19:14:10 GMT 55.826515 -3.896971 5,900 334 223 -1024
2019-01-20 19:14:06 GMT 55.823776 -3.894570 5,950 334 223 -1024
2019-01-20 19:14:03 GMT 55.821022 -3.892078 6,000 334 224 -1024
2019-01-20 19:13:59 GMT 55.815903 -3.887496 6,100 334 225 -1024
2019-01-20 19:13:56 GMT 55.814529 -3.886247 6,125 334 225 -960
2019-01-20 19:13:52 GMT 55.811386 -3.883410 6,200 334 225 -832
2019-01-20 19:13:49 GMT 55.807800 -3.880171 6,250 334 225 -768
2019-01-20 19:13:46 GMT 55.805428 -3.878088 6,275 334 225 -768
2019-01-20 19:13:43 GMT 55.801655 -3.874655 6,325 333 224 -768
2019-01-20 19:13:39 GMT 55.798721 -3.871994 6,375 333 223 -768
2019-01-20 19:13:35 GMT 55.794800 -3.868436 6,475 333 224 -768
2019-01-20 19:13:32 GMT 55.792439 -3.866243 6,475 333 224 -768
2019-01-20 19:13:29 GMT 55.789307 -3.863359 6,525 333 222 -768
2019-01-20 19:13:26 GMT 55.786201 -3.860493 6,550 333 222 -768
2019-01-20 19:13:22 GMT 55.783081 -3.857699 6,600 333 221 -768
2019-01-20 19:13:17 GMT 55.777821 -3.852854 6,750 333 220 -768
2019-01-20 19:13:14 GMT 55.774933 -3.850193 6,725 333 220 -768
2019-01-20 19:13:11 GMT 55.773788 -3.849127 6,750 333 220 -768
2019-01-20 19:13:08 GMT 55.767441 -3.843241 6,800 333 219 -896
2019-01-20 19:13:05 GMT 55.767441 -3.843241 6,850 333 219 -896
2019-01-20 19:13:01 GMT 55.764359 -3.840388 6,900 333 219 -896
2019-01-20 19:12:58 GMT 55.761250 -3.837576 6,950 333 219 -832
2019-01-20 19:12:55 GMT 55.758781 -3.835344 6,975 333 219 -832
2019-01-20 19:12:51 GMT 55.755341 -3.832148 7,050 333 219 -832
2019-01-20 19:12:48 GMT 55.752045 -3.829152 7,100 333 219 -896
2019-01-20 19:12:45 GMT 55.749527 -3.826904 7,125 333 219 -896
2019-01-20 19:12:41 GMT 55.745865 -3.823575 7,200 333 220 -896
2019-01-20 19:12:38 GMT 55.743187 -3.821182 7,300 333 221 -896
2019-01-20 19:12:34 GMT 55.739685 -3.817999 7,300 333 222 -832
2019-01-20 19:12:31 GMT 55.736572 -3.815169 7,350 333 222 -832
2019-01-20 19:12:27 GMT 55.733410 -3.812342 7,425 333 224 -640
2019-01-20 19:12:24 GMT 55.730850 -3.810024 7,425 334 225 -640
2019-01-20 19:12:20 GMT 55.726913 -3.806430 7,475 334 227 -704
2019-01-20 19:12:17 GMT 55.724098 -3.803930 7,525 334 229 -704
2019-01-20 19:12:14 GMT 55.721447 -3.801527 7,550 334 232 -704
2019-01-20 19:12:10 GMT 55.717392 -3.797857 7,600 334 234 -704
2019-01-20 19:12:07 GMT 55.714882 -3.795691 7,650 334 236 -704
2019-01-20 19:12:04 GMT 55.711391 -3.792515 7,675 334 237 -704
2019-01-20 19:12:00 GMT 55.703384 -3.785305 7,750 333 241 -704
2019-01-20 19:11:57 GMT 55.703384 -3.785305 7,775 333 242 -704
2019-01-20 19:11:54 GMT 55.701473 -3.783588 7,800 333 243 -704
2019-01-20 19:11:50 GMT 55.696747 -3.779297 7,850 333 247 -704
2019-01-20 19:11:46 GMT 55.693466 -3.776293 7,900 333 248 -832
2019-01-20 19:11:43 GMT 55.690441 -3.773546 7,925 333 249 -1024
2019-01-20 19:11:39 GMT 55.686722 -3.770058 8,075 333 249 -1024
2019-01-20 19:11:34 GMT 55.680817 -3.764648 8,100 333 249 -960
2019-01-20 19:11:29 GMT 55.676243 -3.760414 8,175 333 249 -960
2019-01-20 19:11:26 GMT 55.671963 -3.756466 8,225 333 248 -960
2019-01-20 19:11:23 GMT 55.670193 -3.754835 8,275 333 248 -960
2019-01-20 19:11:18 GMT 55.665848 -3.750832 8,350 333 248 -960
2019-01-20 19:11:13 GMT 55.660217 -3.745589 8,425 333 247 -768
2019-01-20 19:11:09 GMT 55.655228 -3.741011 8,500 333 247 -768
2019-01-20 19:11:06 GMT 55.651566 -3.737599 8,550 333 247 -768
2019-01-20 19:11:03 GMT 55.649849 -3.736038 8,575 333 247 -832
2019-01-20 19:10:58 GMT 55.644867 -3.731489 8,725 333 248 -768
2019-01-20 19:10:54 GMT 55.639465 -3.726597 8,700 333 252 -704
2019-01-20 19:10:51 GMT 55.637878 -3.725114 8,725 333 248 -768
2019-01-20 19:10:48 GMT 55.634628 -3.722118 8,775 333 250 -768
2019-01-20 19:10:45 GMT 55.631561 -3.719371 8,825 333 250 -768
2019-01-20 19:10:42 GMT 55.628483 -3.716555 8,850 333 250 -768
2019-01-20 19:10:38 GMT 55.623081 -3.711662 8,900 333 250 -768
2019-01-20 19:10:34 GMT 55.619541 -3.708401 8,950 333 250 -768
2019-01-20 19:10:31 GMT 55.617783 -3.706804 9,000 333 250 -704
2019-01-20 19:10:28 GMT 55.613205 -3.702559 9,050 333 250 -704
2019-01-20 19:10:23 GMT 55.608582 -3.698314 9,125 333 252 -704
2019-01-20 19:10:20 GMT 55.606369 -3.696299 9,125 333 251 -704
2019-01-20 19:10:17 GMT 55.602859 -3.693071 9,225 333 253 -704
2019-01-20 19:10:12 GMT 55.597755 -3.688402 9,275 333 254 -768
2019-01-20 19:10:07 GMT 55.591518 -3.682737 9,300 333 254 -768
2019-01-20 19:10:04 GMT 55.589539 -3.680919 9,350 333 255 -768
2019-01-20 19:10:01 GMT 55.585693 -3.677507 9,375 333 256 -832
2019-01-20 19:09:58 GMT 55.582352 -3.674427 9,425 333 256 -832
2019-01-20 19:09:54 GMT 55.578552 -3.671015 9,500 333 257 -768
2019-01-20 19:09:51 GMT 55.576080 -3.668768 9,575 333 257 -768
2019-01-20 19:09:47 GMT 55.570633 -3.663857 9,575 333 257 -704
2019-01-20 19:09:44 GMT 55.567497 -3.661022 9,625 333 257 -576
2019-01-20 19:09:40 GMT 55.563679 -3.657589 9,650 333 257 -576
2019-01-20 19:09:36 GMT 55.559601 -3.653953 9,700 333 257 -576
2019-01-20 19:09:32 GMT 55.554836 -3.649607 9,750 333 257 -576
2019-01-20 19:09:26 GMT 55.548981 -3.644381 9,800 333 257 -576
2019-01-20 19:09:21 GMT 55.543579 -3.639471 9,850 333 257 -640
2019-01-20 19:09:18 GMT 55.538914 -3.635187 9,875 333 258 -576
2019-01-20 19:09:13 GMT 55.535702 -3.632183 9,950 333 258 -576
2019-01-20 19:09:10 GMT 55.532547 -3.629400 9,950 333 258 -576
2019-01-20 19:09:07 GMT 55.529160 -3.626237 10,000 333 258 -576
2019-01-20 19:09:02 GMT 55.522202 -3.619995 10,050 334 258 -576
2019-01-20 19:08:56 GMT 55.514191 -3.612837 10,100 334 258 -576
2019-01-20 19:08:53 GMT 55.514191 -3.612837 10,150 334 258 -576
2019-01-20 19:08:50 GMT 55.510983 -3.610125 10,150 334 258 -576
2019-01-20 19:08:47 GMT 55.506840 -3.606520 10,200 335 258 -640
2019-01-20 19:08:43 GMT 55.503395 -3.603601 10,250 335 258 -640
2019-01-20 19:08:40 GMT 55.500183 -3.600852 10,250 335 258 -640
2019-01-20 19:08:37 GMT 55.495853 -3.597164 10,300 335 259 -576
2019-01-20 19:08:34 GMT 55.494225 -3.595791 10,325 335 259 -576
2019-01-20 19:08:31 GMT 55.489571 -3.591757 10,350 334 260 -576
2019-01-20 19:08:25 GMT 55.484261 -3.587208 10,400 334 260 -576
2019-01-20 19:08:22 GMT 55.480396 -3.583775 10,450 334 260 -512
2019-01-20 19:08:19 GMT 55.470856 -3.575191 10,500 333 259 -576
2019-01-20 19:08:14 GMT 55.470856 -3.575191 10,525 333 260 -576
2019-01-20 19:08:10 GMT 55.466949 -3.571639 10,575 333 260 -576
2019-01-20 19:08:07 GMT 55.464432 -3.569308 10,600 333 260 -640
2019-01-20 19:08:04 GMT 55.461266 -3.566437 10,650 333 260 -832
2019-01-20 19:08:01 GMT 55.457401 -3.562832 10,700 333 259 -960
2019-01-20 19:07:58 GMT 55.451248 -3.557240 10,750 333 259 -1024
2019-01-20 19:07:55 GMT 55.451248 -3.557240 10,775 333 260 -1024
2019-01-20 19:07:52 GMT 55.444225 -3.550730 10,875 333 259 -960
2019-01-20 19:07:49 GMT 55.444225 -3.550730 10,875 333 259 -960
2019-01-20 19:07:43 GMT 55.439480 -3.546337 10,975 333 259 -960
2019-01-20 19:07:40 GMT 55.435616 -3.542758 11,000 333 259 -960
2019-01-20 19:07:37 GMT 55.432434 -3.539860 11,050 333 259 -960
2019-01-20 19:07:32 GMT 55.426071 -3.534124 11,175 333 260 -960
2019-01-20 19:07:28 GMT 55.423096 -3.531458 11,200 333 260 -960
2019-01-20 19:07:20 GMT 55.414387 -3.523615 11,325 333 261 -960
2019-01-20 19:07:17 GMT 55.410095 -3.519745 11,425 333 262 -1024
2019-01-20 19:07:14 GMT 55.408401 -3.518210 11,425 333 262 -1024
2019-01-20 19:07:11 GMT 55.405216 -3.515375 11,475 333 263 -1152
2019-01-20 19:07:08 GMT 55.397278 -3.508274 11,625 333 265 -1216
2019-01-20 19:07:01 GMT 55.394073 -3.505366 11,725 333 266 -1152
2019-01-20 19:06:58 GMT 55.386337 -3.498418 12,075 334 267 -1088
2019-01-20 19:06:50 GMT 55.382309 -3.494864 11,900 334 269 -1024
2019-01-20 19:06:47 GMT 55.378738 -3.491794 11,950 334 270 -1088
2019-01-20 19:06:41 GMT 55.371792 -3.485662 12,100 334 275 -1152
2019-01-20 19:06:38 GMT 55.368439 -3.482747 12,100 334 275 -1152
2019-01-20 19:06:35 GMT 55.364483 -3.479254 12,175 334 279 -1216
2019-01-20 19:06:29 GMT 55.356720 -3.472326 12,275 334 280 -1216
2019-01-20 19:06:26 GMT 55.355221 -3.471014 12,325 333 281 -1280
2019-01-20 19:06:21 GMT 55.348984 -3.465459 12,500 333 284 -1280
2019-01-20 19:06:18 GMT 55.340515 -3.457785 12,550 333 285 -1344
2019-01-20 19:06:11 GMT 55.335995 -3.453702 12,725 333 286 -1536
2019-01-20 19:06:07 GMT 55.332222 -3.450373 12,825 333 287 -1728
2019-01-20 19:06:04 GMT 55.328659 -3.447122 12,900 333 288 -1728
2019-01-20 19:05:59 GMT 55.323669 -3.442679 13,025 334 289 -1728
2019-01-20 19:05:56 GMT 55.318909 -3.438471 13,150 334 288 -1664
2019-01-20 19:05:53 GMT 55.316025 -3.435893 13,200 334 290 -1728
2019-01-20 19:05:48 GMT 55.309158 -3.429835 13,350 334 290 -1728
2019-01-20 19:05:45 GMT 55.307083 -3.428067 13,400 334 291 -1728
2019-01-20 19:05:40 GMT 55.300426 -3.422158 13,600 334 291 -1728
2019-01-20 19:05:37 GMT 55.295792 -3.418041 13,700 334 292 -1792
2019-01-20 19:05:34 GMT 55.292999 -3.415617 13,750 334 292 -1792
2019-01-20 19:05:30 GMT 55.287346 -3.410506 13,975 333 292 -1728
2019-01-20 19:05:26 GMT 55.283482 -3.407093 14,025 333 292 -1728
2019-01-20 19:05:22 GMT 55.279404 -3.403419 14,950 333 300 -1408
2019-01-20 19:05:18 GMT 55.273987 -3.398604 15,075 333 300 -1408
2019-01-20 19:05:15 GMT 55.270660 -3.395664 14,350 334 293 -1472
2019-01-20 19:05:12 GMT 55.266495 -3.391948 14,425 334 295 -1472
2019-01-20 19:05:07 GMT 55.259834 -3.385953 14,525 333 295 -1472
2019-01-20 19:05:04 GMT 55.252808 -3.379669 14,925 333 297 -1472
2019-01-20 19:05:01 GMT 55.248104 -3.375466 14,950 333 300 -1408
2019-01-20 19:04:57 GMT 55.248104 -3.375466 14,800 333 298 -1472
2019-01-20 19:04:54 GMT 55.245216 -3.372886 14,900 334 300 -1472
2019-01-20 19:04:51 GMT 55.240997 -3.369168 14,950 333 300 -1408
2019-01-20 19:04:47 GMT 55.235394 -3.364147 15,050 333 300 -1408
2019-01-20 19:04:44 GMT 55.227806 -3.357322 15,175 333 302 -1536
2019-01-20 19:04:40 GMT 55.227806 -3.357322 15,225 333 302 -1600
2019-01-20 19:04:37 GMT 55.221542 -3.351719 15,325 333 302 -1728
2019-01-20 19:04:34 GMT 55.218796 -3.349214 15,425 333 303 -1728
2019-01-20 19:04:31 GMT 55.215050 -3.345920 15,500 333 303 -1792
2019-01-20 19:04:28 GMT 55.211884 -3.343090 15,650 334 304 -1728
2019-01-20 19:04:25 GMT 55.208130 -3.339682 15,675 334 304 -1728
2019-01-20 19:04:22 GMT 55.205200 -3.337097 15,775 334 305 -1728
2019-01-20 19:04:18 GMT 55.199295 -3.331846 15,925 334 305 -1728
2019-01-20 19:04:15 GMT 55.195587 -3.328615 15,975 334 305 -1728
2019-01-20 19:04:12 GMT 55.192062 -3.325465 16,050 334 305 -1728
2019-01-20 19:04:09 GMT 55.188843 -3.322615 16,125 334 306 -1728
2019-01-20 19:04:05 GMT 55.182137 -3.316789 16,225 334 306 -1728
2019-01-20 19:04:02 GMT 55.179344 -3.314292 16,350 334 308 -1664
2019-01-20 19:03:58 GMT 55.172966 -3.308633 16,400 334 308 -1664
2019-01-20 19:03:55 GMT 55.170174 -3.306136 16,625 334 309 -1728
2019-01-20 19:03:52 GMT 55.166931 -3.303250 16,650 333 309 -1728
2019-01-20 19:03:48 GMT 55.161758 -3.298645 16,700 334 309 -1728
2019-01-20 19:03:45 GMT 55.157417 -3.294816 16,850 334 309 -1792
2019-01-20 19:03:42 GMT 55.153015 -3.290971 16,975 334 310 -1792
2019-01-20 19:03:38 GMT 55.144524 -3.283664 17,250 334 310 -1792
2019-01-20 19:03:35 GMT 55.144524 -3.283664 17,200 334 310 -1792
2019-01-20 19:03:31 GMT 55.140701 -3.280308 17,250 334 310 -1792
2019-01-20 19:03:26 GMT 55.131729 -3.272472 17,525 334 311 -1792
2019-01-20 19:03:22 GMT 55.128090 -3.269265 17,525 334 311 -1792
2019-01-20 19:03:19 GMT 55.124268 -3.265928 17,650 334 310 -1728
2019-01-20 19:03:16 GMT 55.120743 -3.262778 17,850 334 310 -1728
2019-01-20 19:03:13 GMT 55.116920 -3.259361 17,850 334 310 -1536
2019-01-20 19:03:06 GMT 55.107655 -3.251121 18,075 334 311 -1728
2019-01-20 19:03:03 GMT 55.104118 -3.248041 18,125 334 311 -1856
2019-01-20 19:03:00 GMT 55.099548 -3.243956 18,175 334 311 -1920
2019-01-20 19:02:56 GMT 55.094250 -3.239385 18,325 334 311 -2304
2019-01-20 19:02:53 GMT 55.089844 -3.235474 18,475 334 311 -2368
2019-01-20 19:02:50 GMT 55.087372 -3.233373 18,775 334 311 -2496
2019-01-20 19:02:47 GMT 55.082424 -3.229065 18,700 334 311 -2496
2019-01-20 19:02:44 GMT 55.078884 -3.225902 18,825 334 311 -2560
2019-01-20 19:02:41 GMT 55.075859 -3.223322 19,050 334 310 -2368
2019-01-20 19:02:38 GMT 55.072586 -3.220448 19,625 334 313 -1792
2019-01-20 19:02:34 GMT 55.065765 -3.214390 19,300 334 311 -2240
2019-01-20 19:02:31 GMT 55.062744 -3.211805 19,475 334 311 -2176
2019-01-20 19:02:27 GMT 55.058121 -3.207685 19,500 334 311 -2112
2019-01-20 19:02:23 GMT 55.052631 -3.202848 19,675 334 312 -1856
2019-01-20 19:02:20 GMT 55.049091 -3.199768 19,725 334 312 -1856
2019-01-20 19:02:16 GMT 55.044064 -3.195357 19,950 334 315 -1856
2019-01-20 19:02:13 GMT 55.038849 -3.190779 19,975 334 314 -1792
2019-01-20 19:02:10 GMT 55.033859 -3.186358 21,100 334 318 -1856
2019-01-20 19:02:07 GMT 55.032520 -3.185120 20,150 334 317 -1856
2019-01-20 19:02:04 GMT 55.028332 -3.181458 20,275 334 317 -1856
2019-01-20 19:02:01 GMT 55.024139 -3.177795 20,375 334 319 -1856
2019-01-20 19:01:58 GMT 55.019623 -3.173837 20,425 334 320 -1792
2019-01-20 19:01:55 GMT 55.015411 -3.170121 20,575 334 321 -1856
2019-01-20 19:01:52 GMT 55.012344 -3.167375 20,750 334 322 -2176
2019-01-20 19:01:49 GMT 55.007614 -3.163230 20,750 334 322 -2176
2019-01-20 19:01:44 GMT 54.996460 -3.153480 21,050 334 322 -2560
2019-01-20 19:01:41 GMT 54.996460 -3.153480 21,075 334 321 -2560
2019-01-20 19:01:38 GMT 54.994171 -3.151541 21,250 334 322 -2496
2019-01-20 19:01:35 GMT 54.990250 -3.148082 21,375 334 321 -2496
2019-01-20 19:01:32 GMT 54.986252 -3.144594 21,925 334 321 -2432
2019-01-20 19:01:29 GMT 54.980289 -3.139426 21,600 334 321 -2368
2019-01-20 19:01:25 GMT 54.976936 -3.136430 21,700 334 322 -2368
2019-01-20 19:01:22 GMT 54.972652 -3.132685 21,825 334 322 -2368
2019-01-20 19:01:19 GMT 54.968418 -3.129023 21,950 334 322 -2368
2019-01-20 19:01:16 GMT 54.964741 -3.125777 22,075 334 322 -2432
2019-01-20 19:01:13 GMT 54.960754 -3.122298 22,275 334 322 -2560
2019-01-20 19:01:10 GMT 54.951645 -3.114301 22,450 334 322 -2432
2019-01-20 19:01:07 GMT 54.951645 -3.114301 22,525 334 322 -2368
2019-01-20 19:01:04 GMT 54.943130 -3.106869 22,675 334 323 -2240
2019-01-20 19:01:01 GMT 54.943130 -3.106869 22,825 334 323 -2176
2019-01-20 19:00:58 GMT 54.940567 -3.104688 22,825 334 323 -2176
2019-01-20 19:00:55 GMT 54.936016 -3.100725 22,900 334 323 -2112
2019-01-20 19:00:52 GMT 54.932007 -3.097256 23,050 334 325 -2048
2019-01-20 19:00:49 GMT 54.927452 -3.093234 23,325 334 326 -2432
2019-01-20 19:00:46 GMT 54.924892 -3.090987 23,250 334 325 -2176
2019-01-20 19:00:43 GMT 54.916031 -3.083281 23,425 334 326 -2304
2019-01-20 19:00:40 GMT 54.916031 -3.083281 23,500 334 326 -2304
2019-01-20 19:00:36 GMT 54.909988 -3.078030 23,675 334 326 -2496
2019-01-20 19:00:33 GMT 54.906235 -3.074799 23,850 334 326 -2560
2019-01-20 19:00:30 GMT 54.901382 -3.070598 23,975 334 326 -2560
2019-01-20 19:00:26 GMT 54.896439 -3.066316 24,175 334 326 -2624
2019-01-20 19:00:22 GMT 54.889603 -3.060441 24,375 334 326 -2496
2019-01-20 19:00:19 GMT 54.884995 -3.056446 24,650 334 326 -2496
2019-01-20 19:00:16 GMT 54.884995 -3.056446 24,525 334 326 -2432
2019-01-20 19:00:13 GMT 54.880062 -3.052202 24,850 334 326 -2368
2019-01-20 19:00:10 GMT 54.875732 -3.048540 26,375 334 327 -2368
2019-01-20 19:00:07 GMT 54.872566 -3.045793 24,950 334 326 -2432
2019-01-20 19:00:04 GMT 54.867447 -3.041382 25,025 334 326 -2432
2019-01-20 19:00:01 GMT 54.863022 -3.037558 25,200 334 326 -2688
2019-01-20 18:59:58 GMT 54.858227 -3.033392 25,350 334 326 -2688
2019-01-20 18:59:55 GMT 54.851524 -3.027649 25,625 334 326 -2496
2019-01-20 18:59:52 GMT 54.851524 -3.027649 25,625 334 326 -2304
2019-01-20 18:59:49 GMT 54.846176 -3.023017 25,700 334 326 -2304
2019-01-20 18:59:46 GMT 54.843201 -3.020432 25,800 334 326 -2176
2019-01-20 18:59:43 GMT 54.840073 -3.017661 25,900 334 326 -1984
2019-01-20 18:59:40 GMT 54.835419 -3.013647 26,375 334 331 -960
2019-01-20 18:59:37 GMT 54.830246 -3.009123 26,125 334 328 -1408
2019-01-20 18:59:33 GMT 54.824802 -3.004428 26,175 334 330 -1280
2019-01-20 18:59:30 GMT 54.822102 -3.002097 26,300 334 330 -1024
2019-01-20 18:59:27 GMT 54.817154 -2.997814 26,350 334 331 -1024
2019-01-20 18:59:24 GMT 54.814224 -2.995309 26,425 334 332 -1024
2019-01-20 18:59:20 GMT 54.808411 -2.990220 26,450 334 332 -1280
2019-01-20 18:59:17 GMT 54.804337 -2.986666 26,525 334 332 -1216
2019-01-20 18:59:14 GMT 54.799942 -2.982869 26,575 334 333 -1344
2019-01-20 18:59:11 GMT 54.796097 -2.979476 26,650 334 333 -1472
2019-01-20 18:59:08 GMT 54.791424 -2.975381 26,700 334 334 -1472
2019-01-20 18:59:05 GMT 54.786724 -2.971302 26,825 334 334 -1472
2019-01-20 18:59:02 GMT 54.783234 -2.968223 26,925 334 334 -1408
2019-01-20 18:58:59 GMT 54.777878 -2.963562 26,925 334 334 -1408
2019-01-20 18:58:56 GMT 54.770432 -2.956987 27,100 334 335 -1408
2019-01-20 18:58:53 GMT 54.765884 -2.952980 27,150 334 335 -1408
2019-01-20 18:58:50 GMT 54.765884 -2.952980 27,200 334 335 -1472
2019-01-20 18:58:47 GMT 54.763229 -2.950637 27,225 333 335 -1472
2019-01-20 18:58:43 GMT 54.757347 -2.945418 27,325 333 336 -1472
2019-01-20 18:58:40 GMT 54.753250 -2.941832 27,400 334 337 -1664
2019-01-20 18:58:37 GMT 54.747574 -2.936823 27,650 334 337 -1664
2019-01-20 18:58:34 GMT 54.740170 -2.930353 27,600 334 339 -1984
2019-01-20 18:58:31 GMT 54.740170 -2.930353 27,700 334 340 -2048
2019-01-20 18:58:28 GMT 54.736259 -2.926941 28,025 334 341 -2112
2019-01-20 18:58:25 GMT 54.732349 -2.923528 27,900 334 341 -2112
2019-01-20 18:58:22 GMT 54.726151 -2.918163 28,025 334 341 -2112
2019-01-20 18:58:19 GMT 54.723679 -2.915982 28,075 334 341 -2112
2019-01-20 18:58:16 GMT 54.719193 -2.912023 28,275 334 343 -2176
2019-01-20 18:58:13 GMT 54.713791 -2.907338 28,350 334 343 -2176
2019-01-20 18:58:09 GMT 54.707958 -2.902305 28,500 334 343 -2176
2019-01-20 18:58:06 GMT 54.703720 -2.898694 28,975 334 345 -2176
2019-01-20 18:58:03 GMT 54.700649 -2.896063 28,725 334 345 -2176
2019-01-20 18:58:00 GMT 54.697037 -2.892878 29,000 334 345 -2176
2019-01-20 18:57:57 GMT 54.690994 -2.887789 28,950 334 345 -2176
2019-01-20 18:57:54 GMT 54.688454 -2.885659 29,025 334 346 -2176
2019-01-20 18:57:51 GMT 54.683258 -2.881245 29,250 335 347 -2176
2019-01-20 18:57:45 GMT 54.675568 -2.874864 29,550 335 350 -2304
2019-01-20 18:57:42 GMT 54.671181 -2.871343 29,450 335 348 -2176
2019-01-20 18:57:39 GMT 54.666527 -2.867515 29,575 335 349 -2240
2019-01-20 18:57:36 GMT 54.660919 -2.862989 29,775 335 349 -2240
2019-01-20 18:57:30 GMT 54.651909 -2.855696 30,000 335 350 -2304
2019-01-20 18:57:27 GMT 54.649117 -2.853366 30,075 335 350 -2304
2019-01-20 18:57:24 GMT 54.643154 -2.848538 30,175 335 351 -2240
2019-01-20 18:57:21 GMT 54.635971 -2.842712 30,375 335 352 -1920
2019-01-20 18:57:18 GMT 54.635971 -2.842712 30,425 335 353 -1728
2019-01-20 18:57:15 GMT 54.630615 -2.838350 30,700 335 354 -1600
2019-01-20 18:57:12 GMT 54.625561 -2.834306 30,650 335 355 -1600
2019-01-20 18:57:09 GMT 54.622742 -2.831968 30,700 336 356 -1728
2019-01-20 18:57:06 GMT 54.617935 -2.828172 30,875 336 358 -1856
2019-01-20 18:57:03 GMT 54.613457 -2.824568 31,050 336 359 -1920
2019-01-20 18:57:00 GMT 54.608917 -2.821063 31,000 336 359 -1920
2019-01-20 18:56:57 GMT 54.603470 -2.816781 31,200 336 361 -2048
2019-01-20 18:56:54 GMT 54.598618 -2.812904 31,225 336 362 -2112
2019-01-20 18:56:51 GMT 54.589203 -2.805509 31,350 336 362 -2176
2019-01-20 18:56:47 GMT 54.589203 -2.805509 31,425 336 363 -2176
2019-01-20 18:56:44 GMT 54.584610 -2.801998 31,600 336 363 -2176
2019-01-20 18:56:41 GMT 54.580399 -2.798686 31,650 335 367 -1856
2019-01-20 18:56:38 GMT 54.576492 -2.795604 31,725 336 364 -2176
2019-01-20 18:56:35 GMT 54.570648 -2.790931 31,950 335 365 -1984
2019-01-20 18:56:32 GMT 54.567368 -2.788280 32,150 335 367 -1920
2019-01-20 18:56:29 GMT 54.561539 -2.783499 32,175 335 367 -1856
2019-01-20 18:56:26 GMT 54.555637 -2.778709 32,250 335 368 -1792
2019-01-20 18:56:22 GMT 54.549728 -2.773886 32,350 334 372 -1728
2019-01-20 18:56:19 GMT 54.541809 -2.767262 32,550 334 372 -1856
2019-01-20 18:56:16 GMT 54.537506 -2.763465 32,600 333 373 -2368
2019-01-20 18:56:13 GMT 54.537506 -2.763465 32,675 332 374 -2560
2019-01-20 18:56:10 GMT 54.533295 -2.759669 32,875 332 374 -2752
2019-01-20 18:56:07 GMT 54.528126 -2.754822 32,875 331 375 -2432
2019-01-20 18:56:04 GMT 54.522633 -2.749495 32,975 331 375 -2048
2019-01-20 18:56:01 GMT 54.519096 -2.745916 33,100 330 377 -1792
2019-01-20 18:55:58 GMT 54.514664 -2.741412 33,250 330 379 -1600
2019-01-20 18:55:55 GMT 54.509876 -2.736511 33,300 330 382 -1408
2019-01-20 18:55:52 GMT 54.505325 -2.731961 33,375 330 381 -1408
2019-01-20 18:55:49 GMT 54.499775 -2.726357 33,425 330 383 -1600
2019-01-20 18:55:46 GMT 54.495865 -2.722362 33,525 330 384 -1856
2019-01-20 18:55:43 GMT 54.490650 -2.717119 33,700 330 386 -1920
2019-01-20 18:55:39 GMT 54.485687 -2.712169 33,725 330 388 -1920
2019-01-20 18:55:36 GMT 54.480743 -2.707241 33,800 330 388 -1920
2019-01-20 18:55:33 GMT 54.474499 -2.700972 34,050 330 390 -1856
2019-01-20 18:55:30 GMT 54.470493 -2.696894 34,075 330 391 -1856
2019-01-20 18:55:26 GMT 54.466507 -2.692943 34,150 330 392 -1856
2019-01-20 18:55:22 GMT 54.457504 -2.683827 34,350 330 393 -1920
2019-01-20 18:55:19 GMT 54.455132 -2.681413 34,450 330 395 -1920
2019-01-20 18:55:16 GMT 54.450439 -2.676706 34,475 330 395 -1920
2019-01-20 18:55:13 GMT 54.443436 -2.669678 34,675 330 397 -1984
2019-01-20 18:55:10 GMT 54.440701 -2.666931 34,725 330 397 -1984
2019-01-20 18:55:07 GMT 54.434975 -2.661105 34,800 330 397 -1920
2019-01-20 18:55:04 GMT 54.431305 -2.657399 34,875 330 398 -1920
2019-01-20 18:55:01 GMT 54.424530 -2.650613 35,150 330 398 -1984
2019-01-20 18:54:58 GMT 54.421143 -2.647140 35,125 330 399 -1920
2019-01-20 18:54:55 GMT 54.416702 -2.642697 35,350 330 399 -1984
2019-01-20 18:54:52 GMT 54.410629 -2.636469 35,375 330 398 -1984
2019-01-20 18:54:49 GMT 54.406998 -2.632724 35,425 330 398 -2048
2019-01-20 18:54:46 GMT 54.401222 -2.626814 35,675 329 397 -2048
2019-01-20 18:54:40 GMT 54.392853 -2.618139 35,800 330 396 -1984
2019-01-20 18:54:37 GMT 54.388142 -2.613331 35,875 329 395 -2048
2019-01-20 18:54:34 GMT 54.378834 -2.603760 36,100 330 391 -1984
2019-01-20 18:54:31 GMT 54.378834 -2.603760 36,175 330 393 -2048
2019-01-20 18:54:28 GMT 54.373154 -2.598017 36,275 330 392 -2048
2019-01-20 18:54:25 GMT 54.367474 -2.592357 36,375 330 390 -1984
2019-01-20 18:54:22 GMT 54.364838 -2.589785 36,900 330 387 -1920
2019-01-20 18:54:19 GMT 54.360855 -2.585826 36,525 330 389 -1984
2019-01-20 18:54:16 GMT 54.353531 -2.578556 36,675 330 387 -2048
2019-01-20 18:54:13 GMT 54.350922 -2.575971 36,700 330 388 -1920
2019-01-20 18:54:10 GMT 54.345596 -2.570634 36,825 330 387 -1920
2019-01-20 18:54:07 GMT 54.340668 -2.565712 36,850 330 388 -1984
2019-01-20 18:54:04 GMT 54.335724 -2.560730 37,050 330 387 -1920
2019-01-20 18:54:01 GMT 54.330791 -2.555736 37,125 330 386 -2048
2019-01-20 18:53:58 GMT 54.326553 -2.551491 37,200 330 387 -2048
2019-01-20 18:53:55 GMT 54.322926 -2.547829 37,325 330 386 -1984
2019-01-20 18:53:52 GMT 54.317383 -2.542253 37,500 330 386 -1536
2019-01-20 18:53:49 GMT 54.313751 -2.538508 37,450 330 386 -1664
2019-01-20 18:53:46 GMT 54.302994 -2.527583 37,925 330 385 -1216
2019-01-20 18:53:43 GMT 54.302994 -2.527583 37,750 330 385 -1216
2019-01-20 18:53:39 GMT 54.297409 -2.521928 37,850 330 385 -1088
2019-01-20 18:53:36 GMT 54.288757 -2.513123 37,825 330 385 -1024
2019-01-20 18:53:30 GMT 54.283119 -2.507380 37,925 330 385 -640
2019-01-20 18:53:27 GMT 54.279785 -2.504075 37,975 330 385 -448
2019-01-20 18:53:24 GMT 54.270367 -2.494624 38,000 330 385 -192
2019-01-20 18:53:21 GMT 54.264545 -2.488807 38,025 330 387 64
2019-01-20 18:53:18 GMT 54.264545 -2.488807 38,025 330 385 -64
2019-01-20 18:53:15 GMT 54.261841 -2.486128 38,025 330 386 -64
2019-01-20 18:53:12 GMT 54.256897 -2.481184 38,025 330 386 128
2019-01-20 18:53:08 GMT 54.250992 -2.475298 38,025 330 386 128
2019-01-20 18:53:05 GMT 54.246719 -2.471035 38,025 330 387 64
2019-01-20 18:53:02 GMT 54.239269 -2.463603 38,025 330 387 64
2019-01-20 18:52:59 GMT 54.235474 -2.459917 38,025 330 387 0
2019-01-20 18:52:56 GMT 54.225258 -2.449790 38,025 330 387 0
2019-01-20 18:52:52 GMT 54.225258 -2.449790 38,000 330 388 64
2019-01-20 18:52:48 GMT 54.219315 -2.443909 38,000 330 388 128
2019-01-20 18:52:45 GMT 54.215012 -2.439671 38,000 330 389 0
2019-01-20 18:52:42 GMT 54.210361 -2.435087 38,000 330 389 0
2019-01-20 18:52:39 GMT 54.205078 -2.429862 38,000 330 388 128
2019-01-20 18:52:36 GMT 54.196815 -2.421597 38,000 330 388 128
2019-01-20 18:52:30 GMT 54.192215 -2.416992 38,000 330 386 -64
2019-01-20 18:52:27 GMT 54.187225 -2.411970 37,975 330 387 0
2019-01-20 18:52:24 GMT 54.182941 -2.407702 38,000 330 386 -64
2019-01-20 18:52:21 GMT 54.176517 -2.401321 38,000 330 385 -64
2019-01-20 18:52:18 GMT 54.168510 -2.393323 38,000 330 384 0
2019-01-20 18:52:15 GMT 54.168510 -2.393323 38,000 330 384 0
2019-01-20 18:52:12 GMT 54.163696 -2.388506 38,000 330 382 128
2019-01-20 18:52:09 GMT 54.158455 -2.383306 38,000 330 381 64
2019-01-20 18:52:05 GMT 54.151470 -2.376278 38,000 330 381 -128
2019-01-20 18:52:02 GMT 54.145233 -2.369977 38,000 330 381 -256
2019-01-20 18:51:59 GMT 54.145233 -2.369977 38,000 330 381 -192
2019-01-20 18:51:56 GMT 54.140392 -2.365130 38,000 330 380 -192
2019-01-20 18:51:53 GMT 54.135506 -2.360283 38,025 330 380 -192
2019-01-20 18:51:50 GMT 54.130325 -2.355076 38,025 330 379 -64
2019-01-20 18:51:47 GMT 54.126160 -2.350917 38,025 330 378 -128
2019-01-20 18:51:44 GMT 54.122589 -2.347386 38,025 330 378 -128
2019-01-20 18:51:41 GMT 54.117188 -2.341893 38,025 330 378 -128
2019-01-20 18:51:38 GMT 54.108170 -2.332868 38,025 330 379 -128
2019-01-20 18:51:35 GMT 54.108170 -2.332868 38,025 330 379 -64
2019-01-20 18:51:32 GMT 54.102360 -2.327001 38,025 330 381 -64
2019-01-20 18:51:29 GMT 54.097870 -2.322588 38,025 330 380 -64
2019-01-20 18:51:25 GMT 54.087742 -2.312541 38,025 330 384 0
2019-01-20 18:51:22 GMT 54.087742 -2.312541 38,025 330 384 0
2019-01-20 18:51:19 GMT 54.084808 -2.309633 38,025 330 385 64
2019-01-20 18:51:16 GMT 54.078278 -2.303205 38,025 331 386 64
2019-01-20 18:51:13 GMT 54.074333 -2.299293 38,025 331 388 64
2019-01-20 18:51:10 GMT 54.064327 -2.289518 38,000 330 391 128
2019-01-20 18:51:07 GMT 54.064327 -2.289518 38,000 330 392 128
2019-01-20 18:51:04 GMT 54.060974 -2.286206 38,000 330 394 128
2019-01-20 18:51:01 GMT 54.054016 -2.279271 38,025 330 399 -128
2019-01-20 18:50:58 GMT 54.050171 -2.275504 38,000 330 399 -128
2019-01-20 18:50:55 GMT 54.045799 -2.271100 38,000 330 400 -64
2019-01-20 18:50:52 GMT 54.040375 -2.265773 38,025 330 400 -64
2019-01-20 18:50:49 GMT 54.034882 -2.260280 38,000 330 402 0
2019-01-20 18:50:46 GMT 54.027054 -2.252511 38,000 330 404 0
2019-01-20 18:50:43 GMT 54.027054 -2.252511 38,025 330 404 0
2019-01-20 18:50:40 GMT 54.020847 -2.246381 38,025 330 405 0
2019-01-20 18:50:37 GMT 54.018082 -2.243644 38,025 330 405 64
2019-01-20 18:50:34 GMT 54.007439 -2.233133 38,025 330 405 128
2019-01-20 18:50:31 GMT 54.007439 -2.233133 38,025 330 405 128
2019-01-20 18:50:28 GMT 54.003296 -2.229048 38,000 330 410 0
2019-01-20 18:50:25 GMT 53.997757 -2.223600 38,000 330 407 128
2019-01-20 18:50:22 GMT 53.993614 -2.219481 38,000 330 408 64
2019-01-20 18:50:19 GMT 53.988400 -2.214311 38,000 330 409 0
2019-01-20 18:50:16 GMT 53.982117 -2.208090 38,000 330 410 -64
2019-01-20 18:50:13 GMT 53.976608 -2.202602 38,000 330 410 -64
2019-01-20 18:50:10 GMT 53.972294 -2.198397 38,000 330 410 -64
2019-01-20 18:50:07 GMT 53.965759 -2.191851 38,000 330 411 0
2019-01-20 18:50:04 GMT 53.959072 -2.185229 38,025 330 410 0
2019-01-20 18:49:58 GMT 53.953857 -2.180059 38,025 330 409 128
2019-01-20 18:49:55 GMT 53.948959 -2.175214 38,025 330 409 64
2019-01-20 18:49:52 GMT 53.943382 -2.169719 38,000 330 409 128
2019-01-20 18:49:49 GMT 53.937790 -2.164228 38,000 330 409 64
2019-01-20 18:49:46 GMT 53.933304 -2.159755 38,000 330 409 0
2019-01-20 18:49:43 GMT 53.929836 -2.156390 38,000 330 409 0
2019-01-20 18:49:40 GMT 53.925568 -2.152222 38,000 330 409 -64
2019-01-20 18:49:37 GMT 53.920349 -2.147042 38,000 330 409 -64
2019-01-20 18:49:34 GMT 53.909958 -2.136760 38,000 330 410 0
2019-01-20 18:49:31 GMT 53.904743 -2.131671 38,000 330 408 0
2019-01-20 18:49:28 GMT 53.904743 -2.131671 38,025 330 407 0
2019-01-20 18:49:25 GMT 53.898239 -2.125148 38,025 330 407 0
2019-01-20 18:49:22 GMT 53.894669 -2.121617 38,000 330 407 64
2019-01-20 18:49:19 GMT 53.889450 -2.116516 38,000 330 406 0
2019-01-20 18:49:16 GMT 53.885284 -2.112445 38,025 330 405 -128
2019-01-20 18:49:13 GMT 53.880817 -2.108082 38,025 330 405 -192
2019-01-20 18:49:10 GMT 53.874905 -2.102266 38,025 330 405 -192
2019-01-20 18:49:07 GMT 53.870087 -2.097447 38,025 330 404 0
2019-01-20 18:49:04 GMT 53.864571 -2.092088 38,000 330 405 0
2019-01-20 18:49:01 GMT 53.856331 -2.083929 38,050 330 404 64
2019-01-20 18:48:58 GMT 53.850815 -2.078535 38,050 330 404 0
2019-01-20 18:48:55 GMT 53.850815 -2.078535 38,050 330 404 64
2019-01-20 18:48:52 GMT 53.846695 -2.074477 38,025 330 404 0
2019-01-20 18:48:49 GMT 53.842484 -2.070374 38,025 330 404 0
2019-01-20 18:48:46 GMT 53.835983 -2.064017 38,050 331 404 128
2019-01-20 18:48:43 GMT 53.830811 -2.058995 38,000 331 403 128
2019-01-20 18:48:40 GMT 53.822891 -2.051304 38,025 331 404 0
2019-01-20 18:48:37 GMT 53.822891 -2.051304 38,025 330 404 -64
2019-01-20 18:48:34 GMT 53.816666 -2.045183 38,025 330 404 -64
2019-01-20 18:48:31 GMT 53.809544 -2.038287 38,025 330 402 64
2019-01-20 18:48:28 GMT 53.802933 -2.031764 38,025 330 403 64
2019-01-20 18:48:22 GMT 53.797443 -2.026412 38,000 330 403 0
2019-01-20 18:48:19 GMT 53.792274 -2.021404 38,000 330 403 -64
2019-01-20 18:48:16 GMT 53.783707 -2.013009 38,025 330 403 0
2019-01-20 18:48:13 GMT 53.783707 -2.013009 38,025 330 403 0
2019-01-20 18:48:10 GMT 53.777847 -2.007281 38,000 330 401 0
2019-01-20 18:48:07 GMT 53.773746 -2.003308 38,000 330 401 128
2019-01-20 18:48:04 GMT 53.769653 -1.999276 38,025 330 402 128
2019-01-20 18:48:01 GMT 53.764809 -1.994584 38,000 330 402 128
2019-01-20 18:47:58 GMT 53.758392 -1.988290 38,000 330 401 128
2019-01-20 18:47:54 GMT 53.753540 -1.983503 38,000 330 402 0
2019-01-20 18:47:51 GMT 53.747040 -1.977147 38,000 330 402 -128
2019-01-20 18:47:48 GMT 53.743675 -1.973823 38,025 330 402 -192
2019-01-20 18:47:45 GMT 53.737808 -1.968088 38,025 330 401 -192
2019-01-20 18:47:42 GMT 53.731804 -1.962191 38,025 331 400 192
2019-01-20 18:47:39 GMT 53.728592 -1.959098 38,025 331 400 -128
2019-01-20 18:47:36 GMT 53.724472 -1.955096 38,025 331 400 -64
2019-01-20 18:47:33 GMT 53.718338 -1.949132 38,025 331 400 192
2019-01-20 18:47:30 GMT 53.714951 -1.945836 38,025 331 400 192
2019-01-20 18:47:27 GMT 53.710155 -1.941187 38,000 331 400 256
2019-01-20 18:47:24 GMT 53.706070 -1.937204 38,000 331 400 192
2019-01-20 18:47:21 GMT 53.699219 -1.930605 38,000 330 399 192
2019-01-20 18:47:18 GMT 53.694794 -1.926323 37,975 330 399 192
2019-01-20 18:47:15 GMT 53.691025 -1.922607 37,975 331 399 -192
2019-01-20 18:47:12 GMT 53.684235 -1.916016 37,975 330 400 128
2019-01-20 18:47:09 GMT 53.681480 -1.913318 37,975 330 400 64
2019-01-20 18:47:06 GMT 53.675659 -1.907663 37,950 330 401 0
2019-01-20 18:47:03 GMT 53.670586 -1.902654 37,950 331 400 -64
2019-01-20 18:47:00 GMT 53.666473 -1.898673 37,975 331 400 0
2019-01-20 18:46:57 GMT 53.662079 -1.894435 37,975 330 399 -64
2019-01-20 18:46:54 GMT 53.657646 -1.890133 37,975 331 400 -64
2019-01-20 18:46:51 GMT 53.652153 -1.884802 37,975 330 399 -64
2019-01-20 18:46:48 GMT 53.647751 -1.880545 37,975 330 399 -64
2019-01-20 18:46:45 GMT 53.641354 -1.874300 37,975 331 399 0
2019-01-20 18:46:42 GMT 53.637211 -1.870342 37,975 331 399 -64
2019-01-20 18:46:39 GMT 53.633148 -1.866342 37,975 331 399 64
2019-01-20 18:46:36 GMT 53.627014 -1.860405 37,975 331 397 -64
2019-01-20 18:46:33 GMT 53.623943 -1.857497 37,975 331 399 -192
2019-01-20 18:46:30 GMT 53.618168 -1.851843 37,975 331 399 -192
2019-01-20 18:46:27 GMT 53.613373 -1.847194 38,000 331 397 -192
2019-01-20 18:46:24 GMT 53.604900 -1.838998 38,000 331 397 -192
2019-01-20 18:46:21 GMT 53.604900 -1.838998 38,000 331 397 -128
2019-01-20 18:46:18 GMT 53.598770 -1.833147 38,025 331 397 -64
2019-01-20 18:46:15 GMT 53.595016 -1.829538 38,025 331 397 64
2019-01-20 18:46:12 GMT 53.590332 -1.825023 38,000 331 396 128
2019-01-20 18:46:09 GMT 53.579132 -1.814235 38,000 331 396 64
2019-01-20 18:46:06 GMT 53.579132 -1.814235 38,000 331 396 128
2019-01-20 18:46:03 GMT 53.576385 -1.811567 38,000 331 398 0
2019-01-20 18:46:00 GMT 53.571011 -1.806362 38,000 331 396 128
2019-01-20 18:45:57 GMT 53.564308 -1.799900 37,975 331 397 0
2019-01-20 18:45:54 GMT 53.560444 -1.796184 38,000 331 398 -64
2019-01-20 18:45:51 GMT 53.551666 -1.787633 38,000 330 397 -64
2019-01-20 18:45:48 GMT 53.551666 -1.787633 38,000 330 397 -128
2019-01-20 18:45:45 GMT 53.546898 -1.783016 38,000 330 397 -128
2019-01-20 18:45:42 GMT 53.541504 -1.777823 38,025 330 397 -128
2019-01-20 18:45:39 GMT 53.536751 -1.773161 38,025 331 396 -64
2019-01-20 18:45:33 GMT 53.523529 -1.760478 38,025 331 397 0
2019-01-20 18:45:30 GMT 53.523529 -1.760478 38,025 331 397 64
2019-01-20 18:45:27 GMT 53.517380 -1.754595 38,025 331 400 -128
2019-01-20 18:45:24 GMT 53.512634 -1.750057 38,025 331 398 -64
2019-01-20 18:45:21 GMT 53.510239 -1.747768 38,000 331 398 -64
2019-01-20 18:45:18 GMT 53.502857 -1.740768 38,000 331 398 -64
2019-01-20 18:45:15 GMT 53.494621 -1.732851 38,025 331 397 -64
2019-01-20 18:45:12 GMT 53.494621 -1.732851 38,025 331 398 -64
2019-01-20 18:45:09 GMT 53.487915 -1.726469 38,000 331 397 -64
2019-01-20 18:45:06 GMT 53.484051 -1.722753 38,025 331 397 0
2019-01-20 18:45:03 GMT 53.480656 -1.719522 38,025 331 397 64
2019-01-20 18:45:00 GMT 53.475266 -1.714260 38,025 331 398 192
2019-01-20 18:44:57 GMT 53.471157 -1.710394 38,025 331 397 192
2019-01-20 18:44:54 GMT 53.465698 -1.705078 38,000 331 398 64
2019-01-20 18:44:51 GMT 53.461613 -1.701104 38,000 331 398 0
2019-01-20 18:44:48 GMT 53.456223 -1.695897 38,000 331 398 0
2019-01-20 18:44:45 GMT 53.451141 -1.691031 38,000 331 399 0
2019-01-20 18:44:42 GMT 53.439560 -1.679888 38,000 331 398 0
2019-01-20 18:44:39 GMT 53.439560 -1.679888 38,000 331 397 64
2019-01-20 18:44:36 GMT 53.437180 -1.677534 38,025 331 398 64
2019-01-20 18:44:33 GMT 53.431728 -1.672345 38,000 331 398 0
2019-01-20 18:44:30 GMT 53.426373 -1.667175 38,000 331 398 0
2019-01-20 18:44:27 GMT 53.418785 -1.659986 38,000 331 399 64
2019-01-20 18:44:21 GMT 53.407894 -1.649565 38,000 331 399 64
2019-01-20 18:44:18 GMT 53.407894 -1.649565 38,000 331 399 64
2019-01-20 18:44:15 GMT 53.403423 -1.645364 38,000 331 399 0
2019-01-20 18:44:12 GMT 53.399002 -1.641164 37,975 331 399 64
2019-01-20 18:44:09 GMT 53.395615 -1.637905 38,000 331 399 0
2019-01-20 18:44:06 GMT 53.383942 -1.626840 37,975 331 399 128
2019-01-20 18:44:03 GMT 53.383942 -1.626840 37,975 331 399 128
2019-01-20 18:44:00 GMT 53.378815 -1.621974 37,975 331 399 64
2019-01-20 18:43:57 GMT 53.375446 -1.618706 37,975 331 399 64
2019-01-20 18:43:54 GMT 53.369629 -1.613132 37,975 331 400 64
2019-01-20 18:43:51 GMT 53.364506 -1.608205 37,950 331 400 64
2019-01-20 18:43:48 GMT 53.358734 -1.602711 37,950 331 400 -64
2019-01-20 18:43:45 GMT 53.355659 -1.599722 37,950 331 400 -64
2019-01-20 18:43:42 GMT 53.349564 -1.593906 37,950 331 400 0
2019-01-20 18:43:39 GMT 53.345764 -1.590193 37,975 331 400 -64
2019-01-20 18:43:36 GMT 53.341278 -1.585876 37,975 331 400 -64
2019-01-20 18:43:33 GMT 53.336151 -1.580933 37,975 331 400 -64
2019-01-20 18:43:30 GMT 53.333450 -1.578343 37,975 331 400 -64
2019-01-20 18:43:27 GMT 53.320770 -1.566258 37,975 331 399 -128
2019-01-20 18:43:24 GMT 53.320770 -1.566258 37,975 331 399 -128
2019-01-20 18:43:21 GMT 53.316372 -1.561997 37,975 331 399 -64
2019-01-20 18:43:18 GMT 53.307129 -1.553231 37,975 331 399 0
2019-01-20 18:43:15 GMT 53.307129 -1.553231 37,975 331 399 0
2019-01-20 18:43:12 GMT 53.302002 -1.548366 38,000 331 401 0
2019-01-20 18:43:09 GMT 53.297283 -1.543902 38,000 331 399 -64
2019-01-20 18:43:06 GMT 53.293468 -1.540267 38,000 331 399 -64
2019-01-20 18:43:03 GMT 53.288681 -1.535732 38,000 331 399 -64
2019-01-20 18:43:00 GMT 53.284576 -1.531866 38,000 331 399 0
2019-01-20 18:42:57 GMT 53.278427 -1.526001 38,000 331 399 0
2019-01-20 18:42:54 GMT 53.273300 -1.521136 38,000 331 399 -64
2019-01-20 18:42:51 GMT 53.269501 -1.517526 38,000 331 399 -64
2019-01-20 18:42:48 GMT 53.263000 -1.511405 38,025 331 399 -64
2019-01-20 18:42:45 GMT 53.258560 -1.507246 38,000 331 399 -64
2019-01-20 18:42:42 GMT 53.254486 -1.503401 38,025 331 400 0
2019-01-20 18:42:39 GMT 53.249008 -1.498260 38,025 331 400 0
2019-01-20 18:42:36 GMT 53.244873 -1.494376 38,000 331 400 -64
2019-01-20 18:42:33 GMT 53.240025 -1.489859 38,000 331 400 0
2019-01-20 18:42:30 GMT 53.235214 -1.485352 38,025 331 400 -64
2019-01-20 18:42:26 GMT 53.229401 -1.479937 38,025 331 401 0
2019-01-20 18:42:23 GMT 53.223873 -1.474672 38,025 331 401 0
2019-01-20 18:42:20 GMT 53.219448 -1.470472 38,025 331 401 0
2019-01-20 18:42:17 GMT 53.214981 -1.466271 38,025 331 401 -64
2019-01-20 18:42:14 GMT 53.209114 -1.460697 38,025 331 401 -64
2019-01-20 18:42:11 GMT 53.204315 -1.456159 38,025 331 401 0
2019-01-20 18:42:08 GMT 53.201202 -1.453256 38,025 331 401 128
2019-01-20 18:42:05 GMT 53.195389 -1.447763 38,000 331 401 128
2019-01-20 18:42:02 GMT 53.190262 -1.442897 38,025 331 401 128
2019-01-20 18:41:59 GMT 53.186119 -1.438967 38,000 331 402 64
2019-01-20 18:41:56 GMT 53.181290 -1.434422 38,000 331 402 64
2019-01-20 18:41:53 GMT 53.176483 -1.429758 38,000 331 403 0
2019-01-20 18:41:50 GMT 53.169033 -1.422729 38,000 331 403 0
2019-01-20 18:41:44 GMT 53.160328 -1.414409 38,025 331 403 -128
2019-01-20 18:41:41 GMT 53.155811 -1.410128 38,050 331 403 128
2019-01-20 18:41:38 GMT 53.151016 -1.405604 38,000 331 403 -64
2019-01-20 18:41:35 GMT 53.146866 -1.401620 38,025 331 403 -256
2019-01-20 18:41:32 GMT 53.136166 -1.391467 38,050 331 403 -64
2019-01-20 18:41:29 GMT 53.136166 -1.391467 38,050 331 403 0
2019-01-20 18:41:26 GMT 53.133453 -1.388907 38,050 331 403 64
2019-01-20 18:41:23 GMT 53.127548 -1.383336 38,050 331 403 0
2019-01-20 18:41:20 GMT 53.122715 -1.378703 38,025 331 403 64
2019-01-20 18:41:17 GMT 53.111729 -1.368283 38,025 331 403 0
2019-01-20 18:41:13 GMT 53.111729 -1.368283 38,025 331 402 128
2019-01-20 18:41:10 GMT 53.101395 -1.358508 38,025 331 403 128
2019-01-20 18:41:07 GMT 53.101395 -1.358508 38,025 331 403 128
2019-01-20 18:41:04 GMT 53.095825 -1.353280 38,000 331 404 0
2019-01-20 18:41:01 GMT 53.091385 -1.349030 38,000 331 403 0
2019-01-20 18:40:58 GMT 53.086166 -1.344147 38,000 331 404 0
2019-01-20 18:40:55 GMT 53.077881 -1.336212 38,000 331 403 64
2019-01-20 18:40:52 GMT 53.077881 -1.336212 38,000 331 403 64
2019-01-20 18:40:49 GMT 53.071976 -1.330643 38,000 331 403 64
2019-01-20 18:40:46 GMT 53.066528 -1.325531 38,000 331 403 0
2019-01-20 18:40:43 GMT 53.063370 -1.322479 38,000 331 403 0
2019-01-20 18:40:40 GMT 53.051674 -1.311454 38,000 331 404 0
2019-01-20 18:40:34 GMT 53.047485 -1.307530 38,000 331 404 -64
2019-01-20 18:40:31 GMT 53.042271 -1.302586 38,000 331 404 0
2019-01-20 18:40:28 GMT 53.037106 -1.297721 38,000 331 404 0
2019-01-20 18:40:25 GMT 53.028072 -1.289246 38,000 331 404 0
2019-01-20 18:40:22 GMT 53.028072 -1.289246 38,000 331 404 0
2019-01-20 18:40:19 GMT 53.023560 -1.285008 38,000 331 404 0
2019-01-20 18:40:16 GMT 53.020485 -1.282104 38,000 331 404 0
2019-01-20 18:40:13 GMT 53.012478 -1.274649 38,000 331 403 0
2019-01-20 18:40:10 GMT 53.009357 -1.271667 38,000 331 404 0
2019-01-20 18:40:07 GMT 53.002796 -1.265625 38,000 331 404 0
2019-01-20 18:40:04 GMT 52.997910 -1.261063 38,000 331 404 -64
2019-01-20 18:40:01 GMT 52.994797 -1.258163 38,000 331 404 -64
2019-01-20 18:39:58 GMT 52.988617 -1.252441 38,000 331 404 -64
2019-01-20 18:39:55 GMT 52.984360 -1.248474 38,000 331 404 -64
2019-01-20 18:39:52 GMT 52.979187 -1.243668 38,025 331 403 0
2019-01-20 18:39:49 GMT 52.973373 -1.238327 38,025 331 403 0
2019-01-20 18:39:46 GMT 52.968750 -1.234055 38,025 331 403 64
2019-01-20 18:39:43 GMT 52.959084 -1.225054 38,000 331 403 128
2019-01-20 18:39:40 GMT 52.959084 -1.225054 38,000 331 404 64
2019-01-20 18:39:37 GMT 52.955265 -1.221523 38,000 331 404 128
2019-01-20 18:39:34 GMT 52.950394 -1.217041 38,000 331 404 128
2019-01-20 18:39:31 GMT 52.946236 -1.213126 38,000 331 404 0
2019-01-20 18:39:28 GMT 52.941719 -1.208967 38,000 331 405 -64
2019-01-20 18:39:25 GMT 52.935471 -1.203156 38,000 331 404 0
2019-01-20 18:39:22 GMT 52.932037 -1.199942 38,000 331 404 0
2019-01-20 18:39:19 GMT 52.925812 -1.194077 38,000 331 404 0
2019-01-20 18:39:16 GMT 52.921608 -1.190133 38,000 331 404 0
2019-01-20 18:39:13 GMT 52.917091 -1.185896 38,000 331 404 -64
2019-01-20 18:39:10 GMT 52.910843 -1.180038 38,000 331 403 0
2019-01-20 18:39:07 GMT 52.906357 -1.175919 38,000 331 402 128
2019-01-20 18:39:04 GMT 52.901825 -1.171646 38,000 331 402 128
2019-01-20 18:39:01 GMT 52.896702 -1.166905 38,000 331 402 128
2019-01-20 18:38:58 GMT 52.892578 -1.163025 38,000 331 402 0
2019-01-20 18:38:55 GMT 52.887405 -1.158218 37,975 331 401 -64
2019-01-20 18:38:52 GMT 52.882549 -1.153800 37,975 331 401 -64
2019-01-20 18:38:49 GMT 52.877384 -1.149013 37,975 331 400 0
2019-01-20 18:38:46 GMT 52.873566 -1.145403 38,000 331 401 0
2019-01-20 18:38:43 GMT 52.867355 -1.139679 38,000 331 399 -64
2019-01-20 18:38:40 GMT 52.862915 -1.135559 38,000 331 398 -64
2019-01-20 18:38:37 GMT 52.856712 -1.129865 38,000 331 398 -64
2019-01-20 18:38:34 GMT 52.852943 -1.126413 38,000 331 397 -64
2019-01-20 18:38:31 GMT 52.848221 -1.122055 38,000 331 394 -128
2019-01-20 18:38:28 GMT 52.842407 -1.116714 38,025 331 393 0
2019-01-20 18:38:25 GMT 52.838058 -1.112671 38,025 331 392 0
2019-01-20 18:38:22 GMT 52.833298 -1.108364 38,025 331 391 64
2019-01-20 18:38:19 GMT 52.829269 -1.104660 38,025 332 389 64
2019-01-20 18:38:16 GMT 52.825241 -1.100922 38,025 332 389 0
2019-01-20 18:38:13 GMT 52.819893 -1.096043 38,000 331 389 64
2019-01-20 18:38:10 GMT 52.816166 -1.092669 38,000 331 389 0
2019-01-20 18:38:07 GMT 52.809837 -1.086783 38,000 331 389 -64
2019-01-20 18:38:03 GMT 52.803829 -1.081212 38,000 332 389 -64
2019-01-20 18:38:00 GMT 52.799744 -1.077499 38,000 331 389 0
2019-01-20 18:37:57 GMT 52.795406 -1.073521 38,000 331 389 64
2019-01-20 18:37:54 GMT 52.790771 -1.069260 38,000 331 389 64
2019-01-20 18:37:51 GMT 52.781719 -1.060887 38,000 331 389 0
2019-01-20 18:37:45 GMT 52.775711 -1.055222 38,000 331 389 0
2019-01-20 18:37:42 GMT 52.770721 -1.050568 38,000 331 389 -128
2019-01-20 18:37:39 GMT 52.766682 -1.046840 38,000 331 389 -128
2019-01-20 18:37:36 GMT 52.763004 -1.043387 38,000 331 389 -64
2019-01-20 18:37:33 GMT 52.751694 -1.032872 38,025 331 389 0
2019-01-20 18:37:30 GMT 52.751694 -1.032872 37,950 331 389 832
2019-01-20 18:37:27 GMT 52.749619 -1.030960 38,025 331 389 0
2019-01-20 18:37:24 GMT 52.743301 -1.025085 38,025 331 389 192
2019-01-20 18:37:21 GMT 52.738998 -1.021118 38,025 331 388 64
2019-01-20 18:37:18 GMT 52.732979 -1.015529 38,025 331 388 128
2019-01-20 18:37:12 GMT 52.724319 -1.007525 38,000 331 389 192
2019-01-20 18:37:09 GMT 52.719292 -1.002895 38,000 331 389 192
2019-01-20 18:37:06 GMT 52.715290 -0.999207 37,975 331 389 192
2019-01-20 18:37:03 GMT 52.711006 -0.995204 37,975 331 389 0
2019-01-20 18:37:00 GMT 52.704628 -0.989319 37,975 331 390 64
2019-01-20 18:36:57 GMT 52.701233 -0.986176 37,975 331 390 64
2019-01-20 18:36:54 GMT 52.696198 -0.981522 37,975 331 390 384
2019-01-20 18:36:51 GMT 52.691895 -0.977478 37,850 331 389 832
2019-01-20 18:36:48 GMT 52.687546 -0.973511 37,950 331 389 576
2019-01-20 18:36:45 GMT 52.678116 -0.964813 37,875 331 390 1472
2019-01-20 18:36:42 GMT 52.672485 -0.959625 37,825 331 389 1280
2019-01-20 18:36:39 GMT 52.672485 -0.959625 37,800 331 390 1408
2019-01-20 18:36:36 GMT 52.668045 -0.955582 37,700 331 390 1472
2019-01-20 18:36:33 GMT 52.663010 -0.950928 37,650 331 393 1408
2019-01-20 18:36:30 GMT 52.657745 -0.946045 37,600 331 391 1536
2019-01-20 18:36:27 GMT 52.654305 -0.942941 37,500 331 393 1472
2019-01-20 18:36:24 GMT 52.644810 -0.934230 37,375 331 393 1280
2019-01-20 18:36:18 GMT 52.639389 -0.929260 37,275 331 393 960
2019-01-20 18:36:15 GMT 52.632008 -0.922459 37,225 331 393 960
2019-01-20 18:36:12 GMT 52.629539 -0.920183 37,100 331 394 1152
2019-01-20 18:36:09 GMT 52.626205 -0.917130 37,175 331 394 1024
2019-01-20 18:36:06 GMT 52.620789 -0.912179 37,075 331 394 1152
2019-01-20 18:36:03 GMT 52.615997 -0.907745 36,675 331 395 1152
2019-01-20 18:36:00 GMT 52.611942 -0.904018 36,975 331 394 1088
2019-01-20 18:35:57 GMT 52.606171 -0.898682 36,925 331 394 1216
2019-01-20 18:35:54 GMT 52.596672 -0.890050 36,850 331 394 1408
2019-01-20 18:35:51 GMT 52.596672 -0.890050 36,775 331 395 1408
2019-01-20 18:35:48 GMT 52.592297 -0.885969 36,650 331 395 1216
2019-01-20 18:35:45 GMT 52.585781 -0.880083 36,625 331 395 1152
2019-01-20 18:35:42 GMT 52.581123 -0.875767 36,575 331 395 1152
2019-01-20 18:35:39 GMT 52.577633 -0.872550 36,500 331 395 1088
2019-01-20 18:35:36 GMT 52.573536 -0.868783 36,325 331 395 896
2019-01-20 18:35:33 GMT 52.563766 -0.859833 36,350 331 395 768
2019-01-20 18:35:30 GMT 52.563766 -0.859833 36,350 331 394 768
2019-01-20 18:35:27 GMT 52.557617 -0.854187 36,350 331 393 896
2019-01-20 18:35:24 GMT 52.554199 -0.851059 36,300 331 393 960
2019-01-20 18:35:21 GMT 52.547466 -0.844927 36,225 331 393 1344
2019-01-20 18:35:18 GMT 52.543045 -0.840846 36,100 331 393 1664
2019-01-20 18:35:15 GMT 52.538670 -0.836844 36,075 331 394 1920
2019-01-20 18:35:12 GMT 52.534901 -0.833391 36,000 331 394 1920
2019-01-20 18:35:09 GMT 52.529480 -0.828476 35,900 331 396 1792
2019-01-20 18:35:06 GMT 52.524399 -0.823822 35,825 331 396 1792
2019-01-20 18:35:02 GMT 52.518932 -0.818795 35,450 331 397 1792
2019-01-20 18:34:59 GMT 52.511032 -0.811615 35,550 331 399 1792
2019-01-20 18:34:56 GMT 52.509296 -0.810085 35,375 331 399 1792
2019-01-20 18:34:53 GMT 52.503845 -0.805054 35,400 331 399 1600
2019-01-20 18:34:50 GMT 52.498672 -0.800400 35,300 332 400 1344
2019-01-20 18:34:47 GMT 52.494873 -0.796967 34,825 332 400 1024
2019-01-20 18:34:44 GMT 52.489372 -0.791957 35,200 332 400 960
2019-01-20 18:34:41 GMT 52.485554 -0.788504 35,125 332 399 1088
2019-01-20 18:34:38 GMT 52.479034 -0.782619 35,050 332 398 1088
2019-01-20 18:34:35 GMT 52.474915 -0.778885 35,025 332 398 1024
2019-01-20 18:34:32 GMT 52.470097 -0.774458 34,975 332 398 896
2019-01-20 18:34:29 GMT 52.465302 -0.770142 34,925 331 397 960
2019-01-20 18:34:26 GMT 52.460835 -0.766061 34,900 331 397 960
2019-01-20 18:34:23 GMT 52.452301 -0.758286 34,700 331 395 1152
2019-01-20 18:34:17 GMT 52.446869 -0.753348 34,525 331 393 1344
2019-01-20 18:34:14 GMT 52.442093 -0.748978 34,700 331 395 1088
2019-01-20 18:34:11 GMT 52.435638 -0.743027 34,600 331 395 1024
2019-01-20 18:34:08 GMT 52.432205 -0.739929 34,525 331 393 1344
2019-01-20 18:34:05 GMT 52.426479 -0.734671 34,475 331 393 1152
2019-01-20 18:34:02 GMT 52.417679 -0.726667 34,425 331 393 1280
2019-01-20 18:33:59 GMT 52.417679 -0.726667 34,375 331 393 1280
2019-01-20 18:33:56 GMT 52.413258 -0.722665 34,250 331 393 1344
2019-01-20 18:33:53 GMT 52.408493 -0.718307 34,250 331 393 1344
2019-01-20 18:33:50 GMT 52.402084 -0.712509 34,150 331 393 1408
2019-01-20 18:33:47 GMT 52.399059 -0.709795 34,150 331 393 1408
2019-01-20 18:33:44 GMT 52.393612 -0.704851 34,000 332 392 1792
2019-01-20 18:33:41 GMT 52.389221 -0.700836 33,900 332 392 1856
2019-01-20 18:33:38 GMT 52.383419 -0.695592 33,650 332 396 1408
2019-01-20 18:33:35 GMT 52.379013 -0.691605 33,675 331 395 1920
2019-01-20 18:33:32 GMT 52.375259 -0.688248 33,650 331 395 1920
2019-01-20 18:33:29 GMT 52.368805 -0.682373 33,500 331 395 1920
2019-01-20 18:33:26 GMT 52.364410 -0.678406 33,375 331 397 1664
2019-01-20 18:33:23 GMT 52.360611 -0.674973 33,275 332 396 1536
2019-01-20 18:33:20 GMT 52.350357 -0.665665 33,225 332 396 1280
2019-01-20 18:33:17 GMT 52.350357 -0.665665 33,175 332 396 1280
2019-01-20 18:33:14 GMT 52.345230 -0.661011 33,100 332 396 1216
2019-01-20 18:33:11 GMT 52.341148 -0.657375 33,050 331 395 1280
2019-01-20 18:33:07 GMT 52.330582 -0.647812 32,900 331 395 1664
2019-01-20 18:33:04 GMT 52.324482 -0.642229 32,850 331 395 1664
2019-01-20 18:33:01 GMT 52.324482 -0.642229 32,800 331 395 1728
2019-01-20 18:32:58 GMT 52.320374 -0.638504 32,725 332 396 1536
2019-01-20 18:32:55 GMT 52.315590 -0.634225 32,475 332 397 1856
2019-01-20 18:32:52 GMT 52.310760 -0.629883 32,500 332 396 1600
2019-01-20 18:32:49 GMT 52.301952 -0.621905 32,400 332 396 1664
2019-01-20 18:32:43 GMT 52.296753 -0.617218 31,900 332 396 1920
2019-01-20 18:32:40 GMT 52.291710 -0.612645 32,225 332 396 1920
2019-01-20 18:32:37 GMT 52.286911 -0.608368 32,100 332 396 1920
2019-01-20 18:32:34 GMT 52.277344 -0.599747 31,975 332 397 1856
2019-01-20 18:32:31 GMT 52.277344 -0.599747 31,900 332 397 1664
2019-01-20 18:32:28 GMT 52.272858 -0.595703 31,725 332 397 1536
2019-01-20 18:32:25 GMT 52.267410 -0.590829 31,725 332 397 0
2019-01-20 18:32:22 GMT 52.262241 -0.586199 31,625 332 397 1472
2019-01-20 18:32:19 GMT 52.259171 -0.583374 31,550 332 396 1536
2019-01-20 18:32:16 GMT 52.253349 -0.578116 31,425 332 396 1472
2019-01-20 18:32:13 GMT 52.248230 -0.573486 31,425 332 396 1536
2019-01-20 18:32:10 GMT 52.244507 -0.570112 31,300 332 396 1600
2019-01-20 18:32:07 GMT 52.237988 -0.564226 31,250 332 396 1792
2019-01-20 18:32:04 GMT 52.228443 -0.555673 31,125 332 396 1728
2019-01-20 18:32:01 GMT 52.228443 -0.555673 31,050 332 396 1792
2019-01-20 18:31:58 GMT 52.223045 -0.550807 30,925 332 396 1728
2019-01-20 18:31:55 GMT 52.219925 -0.547982 30,850 332 396 1728
2019-01-20 18:31:52 GMT 52.213394 -0.542068 30,825 332 396 1792
2019-01-20 18:31:49 GMT 52.210007 -0.539017 30,675 332 396 1792
2019-01-20 18:31:46 GMT 52.204880 -0.534439 30,450 332 396 1600
2019-01-20 18:31:43 GMT 52.199753 -0.529785 30,525 332 396 1664
2019-01-20 18:31:40 GMT 52.194927 -0.525460 30,325 332 396 1536
2019-01-20 18:31:37 GMT 52.189808 -0.520909 30,275 332 396 1536
2019-01-20 18:31:34 GMT 52.185699 -0.517197 30,300 332 395 1408
2019-01-20 18:31:31 GMT 52.180573 -0.512619 30,200 332 395 1472
2019-01-20 18:31:28 GMT 52.177505 -0.509872 30,075 332 395 1344
2019-01-20 18:31:25 GMT 52.172424 -0.505295 29,975 332 392 1280
2019-01-20 18:31:22 GMT 52.167297 -0.500717 29,950 332 392 1280
2019-01-20 18:31:19 GMT 52.160889 -0.494919 29,900 332 392 1216
2019-01-20 18:31:16 GMT 52.157867 -0.492172 29,875 332 392 1216
2019-01-20 18:31:13 GMT 52.152100 -0.487061 29,800 332 390 1216
2019-01-20 18:31:10 GMT 52.145817 -0.481437 29,725 332 389 1152
2019-01-20 18:31:07 GMT 52.142368 -0.478376 29,675 332 388 1152
2019-01-20 18:31:04 GMT 52.138641 -0.475082 29,625 332 388 1152
2019-01-20 18:31:01 GMT 52.134293 -0.471191 29,175 332 382 1664
2019-01-20 18:30:58 GMT 52.129616 -0.466997 29,525 332 385 1152
2019-01-20 18:30:55 GMT 52.123581 -0.461655 29,400 332 384 1344
2019-01-20 18:30:52 GMT 52.119324 -0.457840 29,350 332 384 1344
2019-01-20 18:30:49 GMT 52.115322 -0.454285 29,150 332 383 1600
2019-01-20 18:30:46 GMT 52.109390 -0.448990 29,250 332 383 1600
2019-01-20 18:30:43 GMT 52.101425 -0.441971 29,075 332 382 1600
2019-01-20 18:30:37 GMT 52.095154 -0.436325 28,950 332 379 1536
2019-01-20 18:30:34 GMT 52.091118 -0.432783 28,875 332 379 1472
2019-01-20 18:30:31 GMT 52.085266 -0.427551 28,725 332 377 1920
2019-01-20 18:30:28 GMT 52.081696 -0.424347 28,750 332 379 1536
2019-01-20 18:30:25 GMT 52.078674 -0.421677 28,725 332 378 1536
2019-01-20 18:30:22 GMT 52.071331 -0.415126 28,525 332 377 1728
2019-01-20 18:30:19 GMT 52.068283 -0.412445 28,500 332 377 1728
2019-01-20 18:30:16 GMT 52.064068 -0.408691 28,425 332 377 1856
2019-01-20 18:30:13 GMT 52.058807 -0.403983 28,300 332 377 1984
2019-01-20 18:30:10 GMT 52.053921 -0.399667 28,175 332 373 1728
2019-01-20 18:30:07 GMT 52.050011 -0.396214 28,100 332 376 1728
2019-01-20 18:30:04 GMT 52.044846 -0.391541 27,850 332 375 1664
2019-01-20 18:30:01 GMT 52.036377 -0.384064 27,850 332 375 1728
2019-01-20 18:29:58 GMT 52.036377 -0.384064 27,225 332 374 1728
2019-01-20 18:29:55 GMT 52.029877 -0.378265 27,700 332 374 1728
2019-01-20 18:29:51 GMT 52.026077 -0.374832 27,575 332 374 1664
2019-01-20 18:29:48 GMT 52.022171 -0.371416 27,575 332 373 1728
2019-01-20 18:29:45 GMT 52.017376 -0.367100 27,500 332 373 1728
2019-01-20 18:29:42 GMT 52.011566 -0.361938 27,275 332 371 1856
2019-01-20 18:29:39 GMT 52.007694 -0.358468 27,250 332 371 1920
2019-01-20 18:29:36 GMT 52.004158 -0.355329 27,200 332 371 1984
2019-01-20 18:29:33 GMT 51.998795 -0.350571 27,100 332 371 1984
2019-01-20 18:29:30 GMT 51.989723 -0.342460 26,875 332 371 1920
2019-01-20 18:29:27 GMT 51.989723 -0.342460 26,825 332 371 1920
2019-01-20 18:29:24 GMT 51.984280 -0.337594 26,800 332 363 2240
2019-01-20 18:29:21 GMT 51.981392 -0.335083 26,600 332 369 1856
2019-01-20 18:29:18 GMT 51.971848 -0.326529 26,500 332 368 1792
2019-01-20 18:29:15 GMT 51.971848 -0.326529 26,450 332 368 1856
2019-01-20 18:29:12 GMT 51.967426 -0.322606 26,300 332 368 1792
2019-01-20 18:29:09 GMT 51.961700 -0.317583 26,225 332 367 1728
2019-01-20 18:29:06 GMT 51.958832 -0.315018 26,200 332 366 1792
2019-01-20 18:29:03 GMT 51.954998 -0.311698 26,150 332 366 1792
2019-01-20 18:29:00 GMT 51.948948 -0.306283 25,950 332 365 1792
2019-01-20 18:28:57 GMT 51.945145 -0.302963 25,875 332 365 1856
2019-01-20 18:28:54 GMT 51.940800 -0.299064 25,600 332 363 2176
2019-01-20 18:28:51 GMT 51.936996 -0.295792 25,675 332 364 2048
2019-01-20 18:28:48 GMT 51.930405 -0.289917 25,525 332 363 2176
2019-01-20 18:28:45 GMT 51.926285 -0.286255 25,450 332 363 2176
2019-01-20 18:28:42 GMT 51.923805 -0.284075 25,300 332 363 2176
2019-01-20 18:28:39 GMT 51.917755 -0.278817 25,225 332 363 2176
2019-01-20 18:28:36 GMT 51.914963 -0.276306 25,150 332 363 2176
2019-01-20 18:28:33 GMT 51.910538 -0.272446 25,100 332 363 2176
2019-01-20 18:28:30 GMT 51.904587 -0.267181 24,950 332 362 2112
2019-01-20 18:28:27 GMT 51.900253 -0.263358 24,775 332 362 2048
2019-01-20 18:28:24 GMT 51.897041 -0.260533 24,725 332 362 1920
2019-01-20 18:28:21 GMT 51.893326 -0.257214 24,650 332 361 1856
2019-01-20 18:28:18 GMT 51.883347 -0.248454 24,450 332 359 1792
2019-01-20 18:28:15 GMT 51.883347 -0.248454 24,375 332 359 1728
2019-01-20 18:28:12 GMT 51.878326 -0.244064 24,275 332 358 1664
2019-01-20 18:28:09 GMT 51.873672 -0.240021 24,200 332 357 1728
2019-01-20 18:28:06 GMT 51.869385 -0.236280 24,175 332 357 1792
2019-01-20 18:28:03 GMT 51.860138 -0.228189 23,975 332 354 2048
2019-01-20 18:28:00 GMT 51.860138 -0.228189 23,875 332 353 2112
2019-01-20 18:27:57 GMT 51.857391 -0.225739 23,800 332 353 2112
2019-01-20 18:27:54 GMT 51.852768 -0.221731 23,750 332 353 2048
2019-01-20 18:27:51 GMT 51.848190 -0.217722 23,500 332 352 1984
2019-01-20 18:27:48 GMT 51.843613 -0.213788 23,500 332 350 2048
2019-01-20 18:27:45 GMT 51.835052 -0.206291 23,350 332 350 2112
2019-01-20 18:27:42 GMT 51.835052 -0.206291 23,275 332 349 2176
2019-01-20 18:27:39 GMT 51.832031 -0.203692 23,200 332 349 2240
2019-01-20 18:27:36 GMT 51.827770 -0.200043 23,075 331 348 832
2019-01-20 18:27:33 GMT 51.822601 -0.195527 22,950 332 348 2432
2019-01-20 18:27:30 GMT 51.818024 -0.191593 22,775 332 348 2688
2019-01-20 18:27:27 GMT 51.811802 -0.186234 22,650 332 348 2752
2019-01-20 18:27:24 GMT 51.809921 -0.184615 22,575 332 348 2816
2019-01-20 18:27:21 GMT 51.805389 -0.180681 22,375 332 349 2816
2019-01-20 18:27:18 GMT 51.800217 -0.176227 21,150 332 349 2688
2019-01-20 18:27:15 GMT 51.798111 -0.174371 22,175 332 349 2688
2019-01-20 18:27:12 GMT 51.792938 -0.169917 21,875 332 349 2688
2019-01-20 18:27:09 GMT 51.788666 -0.166168 21,825 332 349 2624
2019-01-20 18:27:06 GMT 51.783875 -0.161974 21,675 331 348 896
2019-01-20 18:27:03 GMT 51.779030 -0.157776 21,625 332 349 2368
2019-01-20 18:27:00 GMT 51.775726 -0.154800 21,325 331 347 1728
2019-01-20 18:26:57 GMT 51.772373 -0.151825 21,325 331 347 1792
2019-01-20 18:26:54 GMT 51.766754 -0.146831 21,250 331 347 1472
2019-01-20 18:26:51 GMT 51.762497 -0.142971 21,150 330 348 64
2019-01-20 18:26:48 GMT 51.759850 -0.140457 21,125 331 348 896
2019-01-20 18:26:45 GMT 51.754761 -0.135770 21,075 330 348 512
2019-01-20 18:26:42 GMT 51.749771 -0.131094 21,000 330 348 256
2019-01-20 18:26:39 GMT 51.747093 -0.128632 21,025 330 348 192
2019-01-20 18:26:36 GMT 51.741463 -0.123367 21,000 330 348 64
2019-01-20 18:26:33 GMT 51.738808 -0.120850 21,000 330 348 0
2019-01-20 18:26:30 GMT 51.734619 -0.116990 21,000 330 348 0
2019-01-20 18:26:27 GMT 51.729584 -0.112239 21,000 330 347 0
2019-01-20 18:26:24 GMT 51.721298 -0.104444 21,000 330 347 0
2019-01-20 18:26:21 GMT 51.721298 -0.104444 21,000 330 347 0
2019-01-20 18:26:18 GMT 51.715118 -0.098654 21,000 330 347 0
2019-01-20 18:26:15 GMT 51.713058 -0.096724 21,000 330 347 0
2019-01-20 18:26:12 GMT 51.709167 -0.093013 21,000 330 347 0
2019-01-20 18:26:09 GMT 51.699844 -0.084229 21,000 330 345 64
2019-01-20 18:26:03 GMT 51.697083 -0.081655 21,000 330 345 0
2019-01-20 18:26:00 GMT 51.692722 -0.077515 21,550 338 345 2816
2019-01-20 18:25:57 GMT 51.688614 -0.073638 21,000 330 345 64
2019-01-20 18:25:54 GMT 51.684483 -0.069733 21,000 330 345 64
2019-01-20 18:25:51 GMT 51.680923 -0.066363 21,000 332 345 0
2019-01-20 18:25:48 GMT 51.675339 -0.061241 21,000 332 345 0
2019-01-20 18:25:45 GMT 51.670609 -0.056992 21,000 334 344 0
2019-01-20 18:25:42 GMT 51.668793 -0.055451 21,000 334 344 0
2019-01-20 18:25:39 GMT 51.657391 -0.046921 21,000 338 343 64
2019-01-20 18:25:35 GMT 51.657391 -0.046921 21,000 338 343 64
2019-01-20 18:25:32 GMT 51.653992 -0.044632 21,000 338 343 64
2019-01-20 18:25:29 GMT 51.647427 -0.040207 21,000 338 343 64
2019-01-20 18:25:26 GMT 51.639278 -0.034790 20,975 338 343 64
2019-01-20 18:25:23 GMT 51.639278 -0.034790 20,975 338 343 192
2019-01-20 18:25:20 GMT 51.635559 -0.032291 20,400 338 342 1280
2019-01-20 18:25:17 GMT 51.631786 -0.029831 20,950 338 343 320
2019-01-20 18:25:14 GMT 51.628342 -0.027542 20,950 338 343 384
2019-01-20 18:25:11 GMT 51.623081 -0.024033 20,950 338 342 704
2019-01-20 18:25:08 GMT 51.611862 -0.016632 20,850 338 341 960
2019-01-20 18:25:04 GMT 51.611862 -0.016632 20,675 339 341 1664
2019-01-20 18:25:01 GMT 51.606812 -0.013362 20,725 339 341 1664
2019-01-20 18:24:58 GMT 51.602505 -0.010529 20,675 339 341 1664
2019-01-20 18:24:55 GMT 51.594040 -0.005048 20,500 339 343 2496
2019-01-20 18:24:52 GMT 51.594040 -0.005048 20,425 339 343 2432
2019-01-20 18:24:49 GMT 51.590260 -0.002594 20,350 339 344 2624
2019-01-20 18:24:46 GMT 51.586491 -0.000153 20,100 338 345 2880
2019-01-20 18:24:43 GMT 51.580158 0.003967 20,050 338 345 2880
2019-01-20 18:24:40 GMT 51.577332 0.005790 19,875 338 345 2880
2019-01-20 18:24:37 GMT 51.572292 0.009079 19,800 338 345 2816
2019-01-20 18:24:34 GMT 51.568542 0.011580 19,600 338 345 2368
2019-01-20 18:24:31 GMT 51.563141 0.015143 19,500 338 345 2176
2019-01-20 18:24:28 GMT 51.559708 0.017445 19,425 338 344 1984
2019-01-20 18:24:25 GMT 51.556274 0.019671 19,375 338 343 1792
2019-01-20 18:24:22 GMT 51.550041 0.023880 19,200 338 342 1344
2019-01-20 18:24:19 GMT 51.546936 0.025907 19,125 338 342 1088
2019-01-20 18:24:16 GMT 51.541893 0.029297 19,075 338 341 512
2019-01-20 18:24:13 GMT 51.537239 0.032425 19,050 338 341 448
2019-01-20 18:24:10 GMT 51.528259 0.038452 19,025 338 341 192
2019-01-20 18:24:07 GMT 51.528259 0.038452 19,000 338 341 64
2019-01-20 18:24:04 GMT 51.524826 0.040753 19,000 338 341 64
2019-01-20 18:24:01 GMT 51.519562 0.044316 19,000 338 341 0
2019-01-20 18:23:58 GMT 51.514664 0.047583 19,000 338 341 0
2019-01-20 18:23:55 GMT 51.511494 0.049744 19,000 338 341 0
2019-01-20 18:23:52 GMT 51.506790 0.052927 19,000 338 341 0
2019-01-20 18:23:49 GMT 51.498787 0.058289 19,000 338 340 0
2019-01-20 18:23:46 GMT 51.493481 0.061798 19,000 338 340 0
2019-01-20 18:23:43 GMT 51.493481 0.061798 19,000 338 340 64
2019-01-20 18:23:39 GMT 51.488571 0.065176 19,000 338 340 64
2019-01-20 18:23:36 GMT 51.483658 0.068436 19,000 338 339 64
2019-01-20 18:23:33 GMT 51.479324 0.071337 19,000 338 339 64
2019-01-20 18:23:30 GMT 51.474335 0.074677 19,000 338 339 64
2019-01-20 18:23:27 GMT 51.470993 0.076981 19,000 338 338 64
2019-01-20 18:23:24 GMT 51.466385 0.080032 19,000 338 338 64
2019-01-20 18:23:21 GMT 51.462067 0.082991 19,000 338 338 64
2019-01-20 18:23:18 GMT 51.457169 0.086212 18,975 338 336 448
2019-01-20 18:23:15 GMT 51.454102 0.088262 18,975 338 336 256
2019-01-20 18:23:12 GMT 51.450462 0.090790 18,975 338 336 384
2019-01-20 18:23:09 GMT 51.440037 0.097733 18,900 338 334 768
2019-01-20 18:23:06 GMT 51.440037 0.097733 18,900 338 334 896
2019-01-20 18:23:03 GMT 51.434917 0.101166 18,875 338 333 1024
2019-01-20 18:23:00 GMT 51.431808 0.103182 18,825 338 333 1088
2019-01-20 18:22:57 GMT 51.425446 0.107414 18,750 338 333 1408
2019-01-20 18:22:54 GMT 51.422699 0.109195 18,700 338 333 1536
2019-01-20 18:22:51 GMT 51.419086 0.111618 18,650 338 333 1728
2019-01-20 18:22:48 GMT 51.414528 0.114594 18,425 338 333 2368
2019-01-20 18:22:45 GMT 51.409653 0.117806 18,350 338 333 2496
2019-01-20 18:22:42 GMT 51.406631 0.119736 18,275 338 333 2880
2019-01-20 18:22:39 GMT 51.402649 0.122334 18,100 339 332 3136
2019-01-20 18:22:36 GMT 51.397816 0.125504 17,975 339 332 3200
2019-01-20 18:22:33 GMT 51.389557 0.130797 17,675 338 333 2688
2019-01-20 18:22:27 GMT 51.384384 0.134137 17,500 338 332 2688
2019-01-20 18:22:24 GMT 51.378616 0.137849 17,275 338 331 2688
2019-01-20 18:22:21 GMT 51.376167 0.139389 17,225 339 331 2624
2019-01-20 18:22:18 GMT 51.372864 0.141525 17,050 339 324 3008
2019-01-20 18:22:15 GMT 51.369278 0.143890 17,025 339 329 2496
2019-01-20 18:22:12 GMT 51.363224 0.147781 16,875 339 328 2560
2019-01-20 18:22:09 GMT 51.359314 0.150223 16,675 339 326 2688
2019-01-20 18:22:06 GMT 51.353714 0.153809 16,575 339 325 2816
2019-01-20 18:22:03 GMT 51.350647 0.155739 16,400 339 325 3008
2019-01-20 18:22:00 GMT 51.347076 0.157966 16,125 339 324 3200
2019-01-20 18:21:57 GMT 51.342590 0.160786 16,125 339 324 3200
2019-01-20 18:21:54 GMT 51.339020 0.163040 16,000 339 324 3264
2019-01-20 18:21:51 GMT 51.331421 0.167913 15,800 338 323 3264
2019-01-20 18:21:48 GMT 51.325424 0.171847 15,500 338 324 3264
2019-01-20 18:21:45 GMT 51.325424 0.171847 15,425 337 323 3264
2019-01-20 18:21:42 GMT 51.322174 0.174074 15,225 336 324 3264
2019-01-20 18:21:39 GMT 51.316906 0.177841 15,075 334 323 3328
2019-01-20 18:21:36 GMT 51.313740 0.180283 14,475 334 324 3328
2019-01-20 18:21:33 GMT 51.309364 0.184097 14,350 322 323 2688
2019-01-20 18:21:30 GMT 51.307037 0.186234 14,425 328 324 3456
2019-01-20 18:21:27 GMT 51.302719 0.190628 14,350 325 325 3520
2019-01-20 18:21:24 GMT 51.298519 0.195312 14,125 322 326 3200
2019-01-20 18:21:21 GMT 51.294434 0.200352 14,025 322 326 3392
2019-01-20 18:21:18 GMT 51.290371 0.205383 13,950 322 326 3072
2019-01-20 18:21:15 GMT 51.288116 0.208221 13,750 322 326 2880
2019-01-20 18:21:12 GMT 51.283806 0.213623 13,550 322 324 2624
2019-01-20 18:21:09 GMT 51.280289 0.218093 13,350 322 322 2752
2019-01-20 18:21:06 GMT 51.276592 0.222702 13,325 343 314 2944
2019-01-20 18:21:03 GMT 51.273285 0.226746 13,200 323 320 2944
2019-01-20 18:21:00 GMT 51.269302 0.231604 13,000 324 318 3008
2019-01-20 18:20:57 GMT 51.266769 0.234528 12,900 325 317 2880
2019-01-20 18:20:54 GMT 51.263416 0.238266 12,700 328 316 2944
2019-01-20 18:20:51 GMT 51.260284 0.241551 12,475 335 314 2880
2019-01-20 18:20:48 GMT 51.251358 0.248306 12,250 341 315 2880
2019-01-20 18:20:45 GMT 51.251358 0.248306 10,975 4 312 2816
2019-01-20 18:20:41 GMT 51.240841 0.252686 11,450 15 308 2368
2019-01-20 18:20:38 GMT 51.240841 0.252686 11,800 26 301 1728
2019-01-20 18:20:35 GMT 51.235020 0.253525 11,325 37 295 1536
2019-01-20 18:20:32 GMT 51.232544 0.253576 11,550 3 312 2880
2019-01-20 18:20:29 GMT 51.228561 0.253205 11,425 6 311 2752
2019-01-20 18:20:26 GMT 51.220688 0.251052 11,225 20 305 2112
2019-01-20 18:20:23 GMT 51.220688 0.251052 11,175 16 306 2304
2019-01-20 18:20:20 GMT 51.215790 0.248529 10,975 25 302 1856
2019-01-20 18:20:17 GMT 51.213043 0.246673 10,825 33 297 1536
2019-01-20 18:20:14 GMT 51.207138 0.241551 10,875 28 301 1664
2019-01-20 18:20:11 GMT 51.205135 0.239334 10,500 76 279 1344
2019-01-20 18:20:08 GMT 51.201782 0.234985 10,675 45 289 1664
2019-01-20 18:20:05 GMT 51.198624 0.230267 10,625 47 288 1728
2019-01-20 18:20:02 GMT 51.196987 0.227203 10,325 76 278 1536
2019-01-20 18:19:59 GMT 51.194149 0.221100 10,450 59 280 2176
2019-01-20 18:19:56 GMT 51.190235 0.209503 10,175 70 277 2176
2019-01-20 18:19:52 GMT 51.190235 0.209503 10,050 71 277 2112
2019-01-20 18:19:49 GMT 51.188747 0.202484 9,975 76 278 1728
2019-01-20 18:19:46 GMT 51.187775 0.196640 9,975 76 278 1728
2019-01-20 18:19:43 GMT 51.186840 0.190659 9,800 77 279 1280
2019-01-20 18:19:40 GMT 51.185852 0.183798 9,700 78 278 1536
2019-01-20 18:19:37 GMT 51.185211 0.179122 9,700 79 278 1664
2019-01-20 18:19:34 GMT 51.184570 0.174371 9,650 80 278 1792
2019-01-20 18:19:31 GMT 51.183674 0.164948 9,525 85 276 2112
2019-01-20 18:19:28 GMT 51.183395 0.161057 9,375 91 274 2496
2019-01-20 18:19:25 GMT 51.183350 0.149002 9,250 95 271 2880
2019-01-20 18:19:22 GMT 51.183350 0.149002 8,750 96 267 3584
2019-01-20 18:19:18 GMT 51.183811 0.140915 8,975 96 270 3200
2019-01-20 18:19:15 GMT 51.184341 0.134137 8,900 96 270 3328
2019-01-20 18:19:12 GMT 51.184792 0.128250 8,625 96 268 3520
2019-01-20 18:19:09 GMT 51.185211 0.122408 8,450 96 268 3520
2019-01-20 18:19:06 GMT 51.185814 0.113983 8,125 96 268 3584
2019-01-20 18:19:03 GMT 51.186047 0.111084 7,825 96 263 3712
2019-01-20 18:19:00 GMT 51.186584 0.103554 7,775 96 266 3392
2019-01-20 18:18:57 GMT 51.187351 0.092239 7,650 96 264 3456
2019-01-20 18:18:54 GMT 51.187351 0.092239 7,600 96 265 3392
2019-01-20 18:18:51 GMT 51.187675 0.087357 5,450 96 262 3968
2019-01-20 18:18:48 GMT 51.188095 0.081581 7,200 96 262 3904
2019-01-20 18:18:45 GMT 51.188469 0.076675 6,850 97 263 3968
2019-01-20 18:18:42 GMT 51.189026 0.069656 6,725 97 263 3648
2019-01-20 18:18:39 GMT 51.189423 0.064730 6,600 97 263 3648
2019-01-20 18:18:36 GMT 51.189957 0.058212 6,475 97 263 3648
2019-01-20 18:18:33 GMT 51.190472 0.052032 6,225 97 261 3776
2019-01-20 18:18:30 GMT 51.190750 0.048770 6,100 97 261 3968
2019-01-20 18:18:27 GMT 51.191540 0.039902 5,800 97 260 4096
2019-01-20 18:18:24 GMT 51.192032 0.034221 5,350 97 260 4352
2019-01-20 18:18:21 GMT 51.192425 0.029373 5,375 97 260 4416
2019-01-20 18:18:18 GMT 51.192810 0.024497 5,050 71 250 2304
2019-01-20 18:18:15 GMT 51.193268 0.018410 4,950 95 261 4160
2019-01-20 18:18:12 GMT 51.193684 0.011063 4,675 92 260 3648
2019-01-20 18:18:08 GMT 51.193775 0.004959 4,500 84 256 3072
2019-01-20 18:18:04 GMT 51.193130 -0.003786 4,250 74 251 2496
2019-01-20 18:18:01 GMT 51.192169 -0.009502 4,000 65 248 1920
2019-01-20 18:17:55 GMT 51.190018 -0.017370 3,900 54 243 1344
2019-01-20 18:17:52 GMT 51.188370 -0.021750 3,875 55 245 1344
2019-01-20 18:17:49 GMT 51.185989 -0.026946 3,650 50 241 1408
2019-01-20 18:17:46 GMT 51.183746 -0.031400 3,700 51 241 1408
2019-01-20 18:17:43 GMT 51.179672 -0.039343 3,500 50 240 1408
2019-01-20 18:17:40 GMT 51.177528 -0.043411 3,475 50 238 1408
2019-01-20 18:17:37 GMT 51.177528 -0.043411 3,475 50 240 1408
2019-01-20 18:17:34 GMT 51.175854 -0.046616 3,425 51 238 1408
2019-01-20 18:17:31 GMT 51.173126 -0.051814 3,325 51 238 1408
2019-01-20 18:17:28 GMT 51.171204 -0.055600 3,250 59 238 1344
2019-01-20 18:17:25 GMT 51.169098 -0.060054 3,175 55 237 1408
2019-01-20 18:17:22 GMT 51.166718 -0.066066 3,100 63 239 1216
2019-01-20 18:17:19 GMT 51.166077 -0.068054 3,025 70 238 1216
2019-01-20 18:17:15 GMT 51.164017 -0.076830 2,950 77 219 1408
2019-01-20 18:17:12 GMT 51.163467 -0.080393 2,900 77 226 1408
2019-01-20 18:17:09 GMT 51.162781 -0.084921 2,875 77 224 1408
2019-01-20 18:17:04 GMT 51.161560 -0.093460 2,700 76 211 1600
2019-01-20 18:17:01 GMT 51.161003 -0.097046 2,625 76 207 1536
2019-01-20 18:16:58 GMT 51.160210 -0.102463 2,550 77 200 1472
2019-01-20 18:16:53 GMT 51.159210 -0.109269 2,425 76 197 1408
2019-01-20 18:16:48 GMT 51.158203 -0.116396 2,325 77 188 1344
2019-01-20 18:16:44 GMT 51.156582 -0.127411 2,125 77 179 1536
2019-01-20 18:16:40 GMT 51.156582 -0.127411 2,025 77 177 1536
2019-01-20 18:16:37 GMT 51.155136 -0.137552 1,975 77 173 1472
2019-01-20 18:16:32 GMT 51.155136 -0.137552 1,725 77 161 1600
2019-01-20 18:16:29 GMT 51.154633 -0.141263 1,850 77 164 1536
2019-01-20 18:16:26 GMT 51.154160 -0.144882 1,725 77 157 1664
2019-01-20 18:16:19 GMT 51.152802 -0.154848 1,525 78 148 1792
2019-01-20 18:16:16 GMT 51.152802 -0.154848 1,425 78 146 3136
2019-01-20 18:16:12 GMT 51.152157 -0.159760 1,300 78 146 3136
2019-01-20 18:16:05 GMT 51.151367 -0.165939 250 78 151 2432
2019-01-20 18:16:01 GMT 51.150650 -0.171327 725 78 148 3008
2019-01-20 18:15:55 GMT 51.149872 -0.177340 450 78 150 2624
2019-01-20 18:15:50 GMT 51.149223 -0.182190 250 77 151 1280
2019-01-20 18:15:42 GMT 51.148060 -0.190983 0 78 110
2019-01-20 18:15:32 GMT 51.146656 -0.201243 0 78 110
2019-01-20 18:15:24 GMT 51.145878 -0.206810 0 78 76
2019-01-20 18:15:13 GMT 51.145336 -0.210781 0 78 21
2019-01-20 18:15:02 GMT 51.145267 -0.211334 0 78 0
2019-01-20 18:14:50 GMT 51.145233 -0.211525 0 78 9
2019-01-20 18:14:41 GMT 51.145245 -0.212250 0 115 14
2019-01-20 18:14:30 GMT 51.145683 -0.213046 0 157 14
2019-01-20 18:14:20 GMT 51.146278 -0.213305 0 168 14
2019-01-20 18:14:16 GMT 51.146542 -0.213343 0 194 13
2019-01-20 18:14:08 GMT 51.146862 -0.212953 0 250 12
2019-01-20 18:13:59 GMT 51.147038 -0.211773 0 258 23
2019-01-20 18:13:56 GMT 51.147114 -0.211171 0 258 23
2019-01-20 18:13:48 GMT 51.147274 -0.210002 0 255 22
2019-01-20 18:13:39 GMT 51.147480 -0.208573 0 258 22
2019-01-20 18:13:27 GMT 51.147736 -0.206699 0 255 22
2019-01-20 18:13:16 GMT 51.147957 -0.205078 0 258 21
2019-01-20 18:13:08 GMT 51.148121 -0.203857 0 258 20
2019-01-20 18:13:03 GMT 51.148212 -0.203228 0 258 20
2019-01-20 18:12:55 GMT 51.148361 -0.202152 0 258 19
2019-01-20 18:12:52 GMT 51.148422 -0.201683 0 258 19
2019-01-20 18:12:46 GMT 51.148544 -0.200779 0 255 19
2019-01-20 18:12:43 GMT 51.148575 -0.200577 0 258 19
2019-01-20 18:12:35 GMT 51.148716 -0.199498 0 258 19
2019-01-20 18:12:32 GMT 51.148769 -0.199108 0 258 18
2019-01-20 18:12:27 GMT 51.148876 -0.198345 0 258 18
2019-01-20 18:12:19 GMT 51.149006 -0.197468 0 255 17
2019-01-20 18:12:10 GMT 51.149143 -0.196400 0 258 16
2019-01-20 18:12:00 GMT 51.149307 -0.195274 0 255 15
2019-01-20 18:11:50 GMT 51.149460 -0.194225 0 258 14
2019-01-20 18:11:38 GMT 51.149586 -0.193244 0 255 11
2019-01-20 18:11:15 GMT 51.150364 -0.192699 0 205 11
2019-01-20 18:11:05 GMT 51.150635 -0.192204 0 255 10
2019-01-20 18:10:54 GMT 51.150787 -0.191129 0 258 16
2019-01-20 18:10:40 GMT 51.151016 -0.189552 0 165 10
2019-01-20 18:10:32 GMT 51.151123 -0.188713 0 165 10
2019-01-20 18:10:23 GMT 51.151245 -0.187844 0 255 13
2019-01-20 18:10:10 GMT 51.151566 -0.186977 0 194 11
2019-01-20 18:10:02 GMT 51.151936 -0.187016 0 165 10
2019-01-20 18:09:58 GMT 51.152088 -0.187073 0 165 13
2019-01-20 18:09:43 GMT 51.152996 -0.187399 0 165 14
2019-01-20 18:09:35 GMT 51.153439 -0.187569 0 165 13
2019-01-20 18:09:03 GMT 51.154930 -0.188104 0 168 11
2019-01-20 18:08:54 GMT 51.155376 -0.188271 0 168 10
2019-01-20 18:08:32 GMT 51.155952 -0.187302 0 255 12
2019-01-20 18:08:21 GMT 51.156078 -0.186405 0 258 15
2019-01-20 18:08:08 GMT 51.156265 -0.184994 0 258 15
2019-01-20 18:07:58 GMT 51.156418 -0.183926 0 258 16
2019-01-20 18:07:49 GMT 51.156582 -0.182781 0 258 16
2019-01-20 18:07:38 GMT 51.156715 -0.181794 0 258 15
2019-01-20 18:07:28 GMT 51.156864 -0.180755 0 258 13
2019-01-20 18:04:02 GMT 51.157242 -0.178604 0 289 4
2019-01-20 18:03:52 GMT 51.157425 -0.178751 0 331 5

Making use of Plane Finder data

You are free to use the raw flight data, aircraft information and images provided in this report for your own purposes provided the data is correctly attributed to Plane Finder. We ask that you please credit Plane Finder and link to planefinder.net in close proximity to the content.

Optionally one of the following logos (no smaller then 150x24px) can be used and must link to planefinder.net

Embedding the Plane Finder map

You are welcome to embed the Plane Finder playback map on your website to offer visitors a more interactive experience. We suggest using the following HTML code:

<iframe src="//planefinder.net/data/report/U2889-G-EZFY-7700-squawk-2019-01-20/map" width="800" height="600" seamless="seamless"></iframe>

Where our data comes from

Plane Finder has a global network of data feeds and antenna radars that receive data broadcast directly from aircraft. The primary technologies used are ADS-B and MLAT. We also show feeds from the FAA and a FLARM glider feed.

Click here to find out more about the Plane Finder network.

How we collect our data